<?xml version="1.0" encoding="UTF-8" standalone="no" ?>
<gpx xmlns="http://www.topografix.com/GPX/1/1" xmlns:xsi="http://www.w3.org/2001/XMLSchema-instance" xsi:schemaLocation="http://www.topografix.com/GPX/1/1 http://www.topografix.com/GPX/1/1/gpx.xsd" version="1.1" creator="VisuGPX - https://www.visugpx.com">
  <metadata>
    <name>Col d Allos la Foux 2021-08-07</name>
  </metadata>
  <trk>
    <name><![CDATA[Col d Allos la Foux 2021-08-07_1]]></name>
    <trkseg>
      <trkpt lat="44.28891" lon="6.59906">
        <ele>2292.6</ele>
        <time>2021-08-07T09:46:42Z</time>
      </trkpt>
      <trkpt lat="44.28891" lon="6.59906">
        <ele>2299.8</ele>
        <time>2021-08-07T09:46:43Z</time>
      </trkpt>
      <trkpt lat="44.28889" lon="6.59907">
        <ele>2301.2</ele>
        <time>2021-08-07T09:46:45Z</time>
      </trkpt>
      <trkpt lat="44.28887" lon="6.59911">
        <ele>2301</ele>
        <time>2021-08-07T09:46:47Z</time>
      </trkpt>
      <trkpt lat="44.28885" lon="6.59913">
        <ele>2301.4</ele>
        <time>2021-08-07T09:46:48Z</time>
      </trkpt>
      <trkpt lat="44.28883" lon="6.59917">
        <ele>2300.2</ele>
        <time>2021-08-07T09:46:49Z</time>
      </trkpt>
      <trkpt lat="44.28875" lon="6.59928">
        <ele>2300.2</ele>
        <time>2021-08-07T09:46:52Z</time>
      </trkpt>
      <trkpt lat="44.28872" lon="6.59933">
        <ele>2299.4</ele>
        <time>2021-08-07T09:46:53Z</time>
      </trkpt>
      <trkpt lat="44.28867" lon="6.59937">
        <ele>2298.2</ele>
        <time>2021-08-07T09:46:54Z</time>
      </trkpt>
      <trkpt lat="44.28862" lon="6.59938">
        <ele>2296.6</ele>
        <time>2021-08-07T09:46:55Z</time>
      </trkpt>
      <trkpt lat="44.28858" lon="6.59937">
        <ele>2295.6</ele>
        <time>2021-08-07T09:46:56Z</time>
      </trkpt>
      <trkpt lat="44.28852" lon="6.59935">
        <ele>2294.6</ele>
        <time>2021-08-07T09:46:59Z</time>
      </trkpt>
      <trkpt lat="44.28823" lon="6.59937">
        <ele>2295.8</ele>
        <time>2021-08-07T09:47:14Z</time>
      </trkpt>
      <trkpt lat="44.28819" lon="6.59938">
        <ele>2297</ele>
        <time>2021-08-07T09:47:16Z</time>
      </trkpt>
      <trkpt lat="44.28815" lon="6.59939">
        <ele>2297.8</ele>
        <time>2021-08-07T09:47:18Z</time>
      </trkpt>
      <trkpt lat="44.28814" lon="6.5994">
        <ele>2298</ele>
        <time>2021-08-07T09:47:19Z</time>
      </trkpt>
      <trkpt lat="44.2881" lon="6.59942">
        <ele>2298.2</ele>
        <time>2021-08-07T09:47:21Z</time>
      </trkpt>
      <trkpt lat="44.2879" lon="6.59946">
        <ele>2297.2</ele>
        <time>2021-08-07T09:47:30Z</time>
      </trkpt>
      <trkpt lat="44.28788" lon="6.59946">
        <ele>2297.4</ele>
        <time>2021-08-07T09:47:31Z</time>
      </trkpt>
      <trkpt lat="44.28786" lon="6.59947">
        <ele>2297.4</ele>
        <time>2021-08-07T09:47:32Z</time>
      </trkpt>
      <trkpt lat="44.28784" lon="6.59947">
        <ele>2297.6</ele>
        <time>2021-08-07T09:47:33Z</time>
      </trkpt>
      <trkpt lat="44.28782" lon="6.59949">
        <ele>2297.6</ele>
        <time>2021-08-07T09:47:34Z</time>
      </trkpt>
      <trkpt lat="44.28765" lon="6.59956">
        <ele>2297.8</ele>
        <time>2021-08-07T09:47:42Z</time>
      </trkpt>
      <trkpt lat="44.28764" lon="6.59957">
        <ele>2298</ele>
        <time>2021-08-07T09:47:43Z</time>
      </trkpt>
      <trkpt lat="44.28762" lon="6.59958">
        <ele>2298</ele>
        <time>2021-08-07T09:47:44Z</time>
      </trkpt>
      <trkpt lat="44.28761" lon="6.59959">
        <ele>2298.2</ele>
        <time>2021-08-07T09:47:45Z</time>
      </trkpt>
      <trkpt lat="44.28757" lon="6.59959">
        <ele>2298.4</ele>
        <time>2021-08-07T09:47:47Z</time>
      </trkpt>
      <trkpt lat="44.28752" lon="6.59958">
        <ele>2299.2</ele>
        <time>2021-08-07T09:47:50Z</time>
      </trkpt>
      <trkpt lat="44.28749" lon="6.59959">
        <ele>2299.8</ele>
        <time>2021-08-07T09:47:55Z</time>
      </trkpt>
      <trkpt lat="44.28745" lon="6.5996">
        <ele>2299.6</ele>
        <time>2021-08-07T09:47:58Z</time>
      </trkpt>
      <trkpt lat="44.28743" lon="6.5996">
        <ele>2299.6</ele>
        <time>2021-08-07T09:48:01Z</time>
      </trkpt>
      <trkpt lat="44.28742" lon="6.5996">
        <ele>2299.6</ele>
        <time>2021-08-07T09:48:03Z</time>
      </trkpt>
      <trkpt lat="44.28741" lon="6.5996">
        <ele>2299.6</ele>
        <time>2021-08-07T09:48:04Z</time>
      </trkpt>
      <trkpt lat="44.28741" lon="6.59959">
        <ele>2299.6</ele>
        <time>2021-08-07T09:48:05Z</time>
      </trkpt>
      <trkpt lat="44.2874" lon="6.59958">
        <ele>2299.6</ele>
        <time>2021-08-07T09:48:06Z</time>
      </trkpt>
      <trkpt lat="44.28739" lon="6.59958">
        <ele>2299.6</ele>
        <time>2021-08-07T09:48:07Z</time>
      </trkpt>
      <trkpt lat="44.28738" lon="6.59958">
        <ele>2299.6</ele>
        <time>2021-08-07T09:48:08Z</time>
      </trkpt>
      <trkpt lat="44.28736" lon="6.59957">
        <ele>2299.6</ele>
        <time>2021-08-07T09:48:09Z</time>
      </trkpt>
      <trkpt lat="44.28731" lon="6.59954">
        <ele>2299.4</ele>
        <time>2021-08-07T09:48:14Z</time>
      </trkpt>
      <trkpt lat="44.28729" lon="6.59954">
        <ele>2299.6</ele>
        <time>2021-08-07T09:48:16Z</time>
      </trkpt>
      <trkpt lat="44.28727" lon="6.59954">
        <ele>2299.8</ele>
        <time>2021-08-07T09:48:18Z</time>
      </trkpt>
      <trkpt lat="44.28726" lon="6.59954">
        <ele>2300</ele>
        <time>2021-08-07T09:48:20Z</time>
      </trkpt>
      <trkpt lat="44.28721" lon="6.59954">
        <ele>2300.2</ele>
        <time>2021-08-07T09:48:26Z</time>
      </trkpt>
      <trkpt lat="44.28716" lon="6.59952">
        <ele>2300.8</ele>
        <time>2021-08-07T09:48:32Z</time>
      </trkpt>
      <trkpt lat="44.28713" lon="6.59952">
        <ele>2301.2</ele>
        <time>2021-08-07T09:48:36Z</time>
      </trkpt>
      <trkpt lat="44.28707" lon="6.59954">
        <ele>2301.8</ele>
        <time>2021-08-07T09:48:43Z</time>
      </trkpt>
      <trkpt lat="44.28703" lon="6.59954">
        <ele>2302.4</ele>
        <time>2021-08-07T09:48:48Z</time>
      </trkpt>
      <trkpt lat="44.28702" lon="6.59954">
        <ele>2302.6</ele>
        <time>2021-08-07T09:48:50Z</time>
      </trkpt>
      <trkpt lat="44.287" lon="6.59953">
        <ele>2303.2</ele>
        <time>2021-08-07T09:48:55Z</time>
      </trkpt>
      <trkpt lat="44.287" lon="6.59953">
        <ele>2303.4</ele>
        <time>2021-08-07T09:48:57Z</time>
      </trkpt>
      <trkpt lat="44.287" lon="6.59953">
        <ele>2303.4</ele>
        <time>2021-08-07T09:48:58Z</time>
      </trkpt>
      <trkpt lat="44.28698" lon="6.59953">
        <ele>2303.4</ele>
        <time>2021-08-07T09:49:00Z</time>
      </trkpt>
      <trkpt lat="44.28695" lon="6.59953">
        <ele>2303.6</ele>
        <time>2021-08-07T09:49:10Z</time>
      </trkpt>
      <trkpt lat="44.28695" lon="6.59954">
        <ele>2303.4</ele>
        <time>2021-08-07T09:49:14Z</time>
      </trkpt>
      <trkpt lat="44.28695" lon="6.59953">
        <ele>2303.2</ele>
        <time>2021-08-07T09:49:16Z</time>
      </trkpt>
      <trkpt lat="44.28695" lon="6.59953">
        <ele>2303.2</ele>
        <time>2021-08-07T09:49:17Z</time>
      </trkpt>
      <trkpt lat="44.28695" lon="6.59953">
        <ele>2303.2</ele>
        <time>2021-08-07T09:49:18Z</time>
      </trkpt>
      <trkpt lat="44.28695" lon="6.59953">
        <ele>2303.2</ele>
        <time>2021-08-07T09:49:20Z</time>
      </trkpt>
      <trkpt lat="44.28695" lon="6.59953">
        <ele>2303</ele>
        <time>2021-08-07T09:49:50Z</time>
      </trkpt>
      <trkpt lat="44.28695" lon="6.59953">
        <ele>2303</ele>
        <time>2021-08-07T09:49:51Z</time>
      </trkpt>
      <trkpt lat="44.28695" lon="6.59953">
        <ele>2303</ele>
        <time>2021-08-07T09:49:53Z</time>
      </trkpt>
      <trkpt lat="44.28695" lon="6.59953">
        <ele>2303</ele>
        <time>2021-08-07T09:49:57Z</time>
      </trkpt>
      <trkpt lat="44.28695" lon="6.59953">
        <ele>2303.2</ele>
        <time>2021-08-07T09:50:23Z</time>
      </trkpt>
      <trkpt lat="44.28695" lon="6.59953">
        <ele>2303.2</ele>
        <time>2021-08-07T09:50:28Z</time>
      </trkpt>
      <trkpt lat="44.28695" lon="6.59953">
        <ele>2303.2</ele>
        <time>2021-08-07T09:50:43Z</time>
      </trkpt>
      <trkpt lat="44.28695" lon="6.59953">
        <ele>2303.2</ele>
        <time>2021-08-07T09:50:44Z</time>
      </trkpt>
      <trkpt lat="44.28695" lon="6.59953">
        <ele>2303.2</ele>
        <time>2021-08-07T09:50:48Z</time>
      </trkpt>
      <trkpt lat="44.28695" lon="6.59953">
        <ele>2303.2</ele>
        <time>2021-08-07T09:50:52Z</time>
      </trkpt>
      <trkpt lat="44.28695" lon="6.59953">
        <ele>2303.2</ele>
        <time>2021-08-07T09:50:54Z</time>
      </trkpt>
      <trkpt lat="44.28695" lon="6.59953">
        <ele>2303.2</ele>
        <time>2021-08-07T09:50:56Z</time>
      </trkpt>
      <trkpt lat="44.28695" lon="6.59953">
        <ele>2303.2</ele>
        <time>2021-08-07T09:50:57Z</time>
      </trkpt>
      <trkpt lat="44.28695" lon="6.59953">
        <ele>2305.8</ele>
        <time>2021-08-07T09:51:00Z</time>
      </trkpt>
      <trkpt lat="44.28695" lon="6.59953">
        <ele>2306.2</ele>
        <time>2021-08-07T09:51:08Z</time>
      </trkpt>
      <trkpt lat="44.28694" lon="6.59953">
        <ele>2306.4</ele>
        <time>2021-08-07T09:51:15Z</time>
      </trkpt>
      <trkpt lat="44.28693" lon="6.59952">
        <ele>2307</ele>
        <time>2021-08-07T09:51:22Z</time>
      </trkpt>
      <trkpt lat="44.28693" lon="6.59952">
        <ele>2307.2</ele>
        <time>2021-08-07T09:51:28Z</time>
      </trkpt>
      <trkpt lat="44.28693" lon="6.59952">
        <ele>2307.2</ele>
        <time>2021-08-07T09:51:30Z</time>
      </trkpt>
      <trkpt lat="44.28693" lon="6.59952">
        <ele>2306.8</ele>
        <time>2021-08-07T09:51:33Z</time>
      </trkpt>
      <trkpt lat="44.28693" lon="6.59952">
        <ele>2307.2</ele>
        <time>2021-08-07T09:51:39Z</time>
      </trkpt>
      <trkpt lat="44.28693" lon="6.59952">
        <ele>2307.2</ele>
        <time>2021-08-07T09:51:41Z</time>
      </trkpt>
      <trkpt lat="44.28692" lon="6.59952">
        <ele>2307.4</ele>
        <time>2021-08-07T09:51:44Z</time>
      </trkpt>
      <trkpt lat="44.28692" lon="6.59952">
        <ele>2307.2</ele>
        <time>2021-08-07T09:51:45Z</time>
      </trkpt>
      <trkpt lat="44.28691" lon="6.59951">
        <ele>2307.2</ele>
        <time>2021-08-07T09:51:46Z</time>
      </trkpt>
      <trkpt lat="44.2869" lon="6.5995">
        <ele>2307</ele>
        <time>2021-08-07T09:51:47Z</time>
      </trkpt>
      <trkpt lat="44.28689" lon="6.59948">
        <ele>2306.6</ele>
        <time>2021-08-07T09:51:48Z</time>
      </trkpt>
      <trkpt lat="44.28687" lon="6.59945">
        <ele>2306.2</ele>
        <time>2021-08-07T09:51:49Z</time>
      </trkpt>
      <trkpt lat="44.28686" lon="6.59943">
        <ele>2305.8</ele>
        <time>2021-08-07T09:51:50Z</time>
      </trkpt>
      <trkpt lat="44.28684" lon="6.5994">
        <ele>2305.6</ele>
        <time>2021-08-07T09:51:51Z</time>
      </trkpt>
      <trkpt lat="44.28683" lon="6.59937">
        <ele>2305.2</ele>
        <time>2021-08-07T09:51:52Z</time>
      </trkpt>
      <trkpt lat="44.2868" lon="6.5993">
        <ele>2304.8</ele>
        <time>2021-08-07T09:51:54Z</time>
      </trkpt>
      <trkpt lat="44.28679" lon="6.59926">
        <ele>2304.2</ele>
        <time>2021-08-07T09:51:55Z</time>
      </trkpt>
      <trkpt lat="44.28676" lon="6.59918">
        <ele>2303.2</ele>
        <time>2021-08-07T09:51:57Z</time>
      </trkpt>
      <trkpt lat="44.28675" lon="6.59915">
        <ele>2302</ele>
        <time>2021-08-07T09:51:58Z</time>
      </trkpt>
      <trkpt lat="44.28674" lon="6.59912">
        <ele>2300.8</ele>
        <time>2021-08-07T09:51:59Z</time>
      </trkpt>
      <trkpt lat="44.28673" lon="6.59909">
        <ele>2299.8</ele>
        <time>2021-08-07T09:52:00Z</time>
      </trkpt>
      <trkpt lat="44.28672" lon="6.59905">
        <ele>2299</ele>
        <time>2021-08-07T09:52:01Z</time>
      </trkpt>
      <trkpt lat="44.2867" lon="6.59901">
        <ele>2298</ele>
        <time>2021-08-07T09:52:02Z</time>
      </trkpt>
      <trkpt lat="44.28669" lon="6.59897">
        <ele>2297</ele>
        <time>2021-08-07T09:52:03Z</time>
      </trkpt>
      <trkpt lat="44.28667" lon="6.59892">
        <ele>2295.6</ele>
        <time>2021-08-07T09:52:04Z</time>
      </trkpt>
      <trkpt lat="44.28666" lon="6.59888">
        <ele>2294.2</ele>
        <time>2021-08-07T09:52:05Z</time>
      </trkpt>
      <trkpt lat="44.28665" lon="6.59884">
        <ele>2292.8</ele>
        <time>2021-08-07T09:52:06Z</time>
      </trkpt>
      <trkpt lat="44.28664" lon="6.5988">
        <ele>2291.8</ele>
        <time>2021-08-07T09:52:07Z</time>
      </trkpt>
      <trkpt lat="44.28661" lon="6.59871">
        <ele>2289.8</ele>
        <time>2021-08-07T09:52:09Z</time>
      </trkpt>
      <trkpt lat="44.28656" lon="6.59862">
        <ele>2288.4</ele>
        <time>2021-08-07T09:52:11Z</time>
      </trkpt>
      <trkpt lat="44.28653" lon="6.59856">
        <ele>2287.8</ele>
        <time>2021-08-07T09:52:12Z</time>
      </trkpt>
      <trkpt lat="44.2865" lon="6.5985">
        <ele>2286.8</ele>
        <time>2021-08-07T09:52:13Z</time>
      </trkpt>
      <trkpt lat="44.28648" lon="6.59844">
        <ele>2285.6</ele>
        <time>2021-08-07T09:52:14Z</time>
      </trkpt>
      <trkpt lat="44.28647" lon="6.59839">
        <ele>2284.2</ele>
        <time>2021-08-07T09:52:15Z</time>
      </trkpt>
      <trkpt lat="44.28646" lon="6.59835">
        <ele>2283.2</ele>
        <time>2021-08-07T09:52:16Z</time>
      </trkpt>
      <trkpt lat="44.28643" lon="6.59825">
        <ele>2281.8</ele>
        <time>2021-08-07T09:52:18Z</time>
      </trkpt>
      <trkpt lat="44.28639" lon="6.59814">
        <ele>2280.2</ele>
        <time>2021-08-07T09:52:20Z</time>
      </trkpt>
      <trkpt lat="44.28637" lon="6.59809">
        <ele>2279.4</ele>
        <time>2021-08-07T09:52:21Z</time>
      </trkpt>
      <trkpt lat="44.28634" lon="6.59805">
        <ele>2278.8</ele>
        <time>2021-08-07T09:52:22Z</time>
      </trkpt>
      <trkpt lat="44.2863" lon="6.59795">
        <ele>2277.4</ele>
        <time>2021-08-07T09:52:24Z</time>
      </trkpt>
      <trkpt lat="44.28625" lon="6.59787">
        <ele>2275.8</ele>
        <time>2021-08-07T09:52:26Z</time>
      </trkpt>
      <trkpt lat="44.2862" lon="6.59782">
        <ele>2274.2</ele>
        <time>2021-08-07T09:52:28Z</time>
      </trkpt>
      <trkpt lat="44.28616" lon="6.59774">
        <ele>2272.2</ele>
        <time>2021-08-07T09:52:30Z</time>
      </trkpt>
      <trkpt lat="44.28613" lon="6.59767">
        <ele>2270.4</ele>
        <time>2021-08-07T09:52:32Z</time>
      </trkpt>
      <trkpt lat="44.28611" lon="6.59763">
        <ele>2269.2</ele>
        <time>2021-08-07T09:52:33Z</time>
      </trkpt>
      <trkpt lat="44.2861" lon="6.5976">
        <ele>2268.2</ele>
        <time>2021-08-07T09:52:34Z</time>
      </trkpt>
      <trkpt lat="44.28608" lon="6.59758">
        <ele>2267</ele>
        <time>2021-08-07T09:52:35Z</time>
      </trkpt>
      <trkpt lat="44.28607" lon="6.59755">
        <ele>2266</ele>
        <time>2021-08-07T09:52:36Z</time>
      </trkpt>
      <trkpt lat="44.28603" lon="6.59749">
        <ele>2264</ele>
        <time>2021-08-07T09:52:38Z</time>
      </trkpt>
      <trkpt lat="44.28601" lon="6.59746">
        <ele>2263</ele>
        <time>2021-08-07T09:52:39Z</time>
      </trkpt>
      <trkpt lat="44.28598" lon="6.59742">
        <ele>2261.6</ele>
        <time>2021-08-07T09:52:41Z</time>
      </trkpt>
      <trkpt lat="44.28595" lon="6.59738">
        <ele>2260.4</ele>
        <time>2021-08-07T09:52:43Z</time>
      </trkpt>
      <trkpt lat="44.28591" lon="6.5973">
        <ele>2258.6</ele>
        <time>2021-08-07T09:52:45Z</time>
      </trkpt>
      <trkpt lat="44.28587" lon="6.59726">
        <ele>2256.4</ele>
        <time>2021-08-07T09:52:47Z</time>
      </trkpt>
      <trkpt lat="44.28585" lon="6.59725">
        <ele>2255.2</ele>
        <time>2021-08-07T09:52:48Z</time>
      </trkpt>
      <trkpt lat="44.28583" lon="6.59725">
        <ele>2254</ele>
        <time>2021-08-07T09:52:49Z</time>
      </trkpt>
      <trkpt lat="44.28581" lon="6.59723">
        <ele>2253</ele>
        <time>2021-08-07T09:52:50Z</time>
      </trkpt>
      <trkpt lat="44.2858" lon="6.5972">
        <ele>2252.2</ele>
        <time>2021-08-07T09:52:51Z</time>
      </trkpt>
      <trkpt lat="44.28581" lon="6.59717">
        <ele>2251.8</ele>
        <time>2021-08-07T09:52:52Z</time>
      </trkpt>
      <trkpt lat="44.28586" lon="6.59704">
        <ele>2251</ele>
        <time>2021-08-07T09:52:55Z</time>
      </trkpt>
      <trkpt lat="44.28588" lon="6.59699">
        <ele>2249.8</ele>
        <time>2021-08-07T09:52:57Z</time>
      </trkpt>
      <trkpt lat="44.28586" lon="6.59695">
        <ele>2248.4</ele>
        <time>2021-08-07T09:52:59Z</time>
      </trkpt>
      <trkpt lat="44.28582" lon="6.59694">
        <ele>2246.8</ele>
        <time>2021-08-07T09:53:01Z</time>
      </trkpt>
      <trkpt lat="44.28577" lon="6.59692">
        <ele>2245.4</ele>
        <time>2021-08-07T09:53:03Z</time>
      </trkpt>
      <trkpt lat="44.28567" lon="6.5969">
        <ele>2243.8</ele>
        <time>2021-08-07T09:53:07Z</time>
      </trkpt>
      <trkpt lat="44.28564" lon="6.59692">
        <ele>2241.6</ele>
        <time>2021-08-07T09:53:09Z</time>
      </trkpt>
      <trkpt lat="44.28562" lon="6.59701">
        <ele>2240.4</ele>
        <time>2021-08-07T09:53:12Z</time>
      </trkpt>
      <trkpt lat="44.28561" lon="6.59719">
        <ele>2239.4</ele>
        <time>2021-08-07T09:53:16Z</time>
      </trkpt>
      <trkpt lat="44.2856" lon="6.5973">
        <ele>2238.2</ele>
        <time>2021-08-07T09:53:18Z</time>
      </trkpt>
      <trkpt lat="44.28559" lon="6.59735">
        <ele>2237.2</ele>
        <time>2021-08-07T09:53:19Z</time>
      </trkpt>
      <trkpt lat="44.28559" lon="6.5974">
        <ele>2236</ele>
        <time>2021-08-07T09:53:20Z</time>
      </trkpt>
      <trkpt lat="44.28559" lon="6.59749">
        <ele>2234.4</ele>
        <time>2021-08-07T09:53:22Z</time>
      </trkpt>
      <trkpt lat="44.2856" lon="6.59763">
        <ele>2233.4</ele>
        <time>2021-08-07T09:53:25Z</time>
      </trkpt>
      <trkpt lat="44.28562" lon="6.59771">
        <ele>2232.2</ele>
        <time>2021-08-07T09:53:27Z</time>
      </trkpt>
      <trkpt lat="44.28566" lon="6.5978">
        <ele>2231</ele>
        <time>2021-08-07T09:53:30Z</time>
      </trkpt>
      <trkpt lat="44.28569" lon="6.59785">
        <ele>2230</ele>
        <time>2021-08-07T09:53:32Z</time>
      </trkpt>
      <trkpt lat="44.28569" lon="6.59788">
        <ele>2229.4</ele>
        <time>2021-08-07T09:53:33Z</time>
      </trkpt>
      <trkpt lat="44.28569" lon="6.59795">
        <ele>2228.8</ele>
        <time>2021-08-07T09:53:35Z</time>
      </trkpt>
      <trkpt lat="44.28562" lon="6.5985">
        <ele>2227.8</ele>
        <time>2021-08-07T09:53:49Z</time>
      </trkpt>
      <trkpt lat="44.28565" lon="6.59861">
        <ele>2226.6</ele>
        <time>2021-08-07T09:53:53Z</time>
      </trkpt>
      <trkpt lat="44.2857" lon="6.59874">
        <ele>2225.6</ele>
        <time>2021-08-07T09:53:57Z</time>
      </trkpt>
      <trkpt lat="44.28568" lon="6.59889">
        <ele>2224.4</ele>
        <time>2021-08-07T09:54:00Z</time>
      </trkpt>
      <trkpt lat="44.28564" lon="6.59904">
        <ele>2223.2</ele>
        <time>2021-08-07T09:54:03Z</time>
      </trkpt>
      <trkpt lat="44.28563" lon="6.59909">
        <ele>2222.6</ele>
        <time>2021-08-07T09:54:04Z</time>
      </trkpt>
      <trkpt lat="44.28561" lon="6.59914">
        <ele>2221.6</ele>
        <time>2021-08-07T09:54:05Z</time>
      </trkpt>
      <trkpt lat="44.28557" lon="6.5992">
        <ele>2221</ele>
        <time>2021-08-07T09:54:06Z</time>
      </trkpt>
      <trkpt lat="44.28553" lon="6.59925">
        <ele>2220.2</ele>
        <time>2021-08-07T09:54:07Z</time>
      </trkpt>
      <trkpt lat="44.28548" lon="6.59928">
        <ele>2219.6</ele>
        <time>2021-08-07T09:54:08Z</time>
      </trkpt>
      <trkpt lat="44.28539" lon="6.59932">
        <ele>2218.8</ele>
        <time>2021-08-07T09:54:10Z</time>
      </trkpt>
      <trkpt lat="44.2853" lon="6.59934">
        <ele>2217.6</ele>
        <time>2021-08-07T09:54:13Z</time>
      </trkpt>
      <trkpt lat="44.28527" lon="6.59935">
        <ele>2216.8</ele>
        <time>2021-08-07T09:54:15Z</time>
      </trkpt>
      <trkpt lat="44.28525" lon="6.59933">
        <ele>2216.2</ele>
        <time>2021-08-07T09:54:16Z</time>
      </trkpt>
      <trkpt lat="44.28522" lon="6.59929">
        <ele>2214.8</ele>
        <time>2021-08-07T09:54:18Z</time>
      </trkpt>
      <trkpt lat="44.2852" lon="6.59924">
        <ele>2213.2</ele>
        <time>2021-08-07T09:54:20Z</time>
      </trkpt>
      <trkpt lat="44.28518" lon="6.59923">
        <ele>2212.2</ele>
        <time>2021-08-07T09:54:22Z</time>
      </trkpt>
      <trkpt lat="44.28517" lon="6.59926">
        <ele>2211</ele>
        <time>2021-08-07T09:54:24Z</time>
      </trkpt>
      <trkpt lat="44.28515" lon="6.5993">
        <ele>2210</ele>
        <time>2021-08-07T09:54:26Z</time>
      </trkpt>
      <trkpt lat="44.28513" lon="6.5993">
        <ele>2209.8</ele>
        <time>2021-08-07T09:54:27Z</time>
      </trkpt>
      <trkpt lat="44.28503" lon="6.59933">
        <ele>2208.6</ele>
        <time>2021-08-07T09:54:32Z</time>
      </trkpt>
      <trkpt lat="44.28501" lon="6.59935">
        <ele>2208.4</ele>
        <time>2021-08-07T09:54:33Z</time>
      </trkpt>
      <trkpt lat="44.28498" lon="6.5994">
        <ele>2208</ele>
        <time>2021-08-07T09:54:35Z</time>
      </trkpt>
      <trkpt lat="44.28495" lon="6.59942">
        <ele>2207.6</ele>
        <time>2021-08-07T09:54:36Z</time>
      </trkpt>
      <trkpt lat="44.2849" lon="6.59936">
        <ele>2206.2</ele>
        <time>2021-08-07T09:54:39Z</time>
      </trkpt>
      <trkpt lat="44.28488" lon="6.59933">
        <ele>2205.6</ele>
        <time>2021-08-07T09:54:40Z</time>
      </trkpt>
      <trkpt lat="44.28487" lon="6.59932">
        <ele>2205</ele>
        <time>2021-08-07T09:54:41Z</time>
      </trkpt>
      <trkpt lat="44.28485" lon="6.59933">
        <ele>2204.2</ele>
        <time>2021-08-07T09:54:42Z</time>
      </trkpt>
      <trkpt lat="44.28483" lon="6.59934">
        <ele>2203.2</ele>
        <time>2021-08-07T09:54:43Z</time>
      </trkpt>
      <trkpt lat="44.2848" lon="6.59937">
        <ele>2202.4</ele>
        <time>2021-08-07T09:54:44Z</time>
      </trkpt>
      <trkpt lat="44.28478" lon="6.59939">
        <ele>2201.8</ele>
        <time>2021-08-07T09:54:45Z</time>
      </trkpt>
      <trkpt lat="44.2847" lon="6.59944">
        <ele>2200.2</ele>
        <time>2021-08-07T09:54:48Z</time>
      </trkpt>
      <trkpt lat="44.28465" lon="6.59942">
        <ele>2198.4</ele>
        <time>2021-08-07T09:54:50Z</time>
      </trkpt>
      <trkpt lat="44.28461" lon="6.5994">
        <ele>2196.6</ele>
        <time>2021-08-07T09:54:52Z</time>
      </trkpt>
      <trkpt lat="44.28456" lon="6.59939">
        <ele>2195.6</ele>
        <time>2021-08-07T09:54:54Z</time>
      </trkpt>
      <trkpt lat="44.28452" lon="6.59937">
        <ele>2194</ele>
        <time>2021-08-07T09:54:56Z</time>
      </trkpt>
      <trkpt lat="44.2845" lon="6.59937">
        <ele>2193</ele>
        <time>2021-08-07T09:54:57Z</time>
      </trkpt>
      <trkpt lat="44.2845" lon="6.59936">
        <ele>2192</ele>
        <time>2021-08-07T09:54:59Z</time>
      </trkpt>
      <trkpt lat="44.2845" lon="6.59935">
        <ele>2191.8</ele>
        <time>2021-08-07T09:55:01Z</time>
      </trkpt>
      <trkpt lat="44.28451" lon="6.59929">
        <ele>2191.4</ele>
        <time>2021-08-07T09:55:04Z</time>
      </trkpt>
      <trkpt lat="44.28452" lon="6.59925">
        <ele>2190.8</ele>
        <time>2021-08-07T09:55:06Z</time>
      </trkpt>
      <trkpt lat="44.28451" lon="6.59925">
        <ele>2189.6</ele>
        <time>2021-08-07T09:55:10Z</time>
      </trkpt>
      <trkpt lat="44.28444" lon="6.59926">
        <ele>2188.4</ele>
        <time>2021-08-07T09:55:13Z</time>
      </trkpt>
      <trkpt lat="44.28442" lon="6.59928">
        <ele>2187.8</ele>
        <time>2021-08-07T09:55:14Z</time>
      </trkpt>
      <trkpt lat="44.28441" lon="6.5993">
        <ele>2187.2</ele>
        <time>2021-08-07T09:55:15Z</time>
      </trkpt>
      <trkpt lat="44.28437" lon="6.59933">
        <ele>2186</ele>
        <time>2021-08-07T09:55:17Z</time>
      </trkpt>
      <trkpt lat="44.28432" lon="6.59933">
        <ele>2184.8</ele>
        <time>2021-08-07T09:55:19Z</time>
      </trkpt>
      <trkpt lat="44.28426" lon="6.59933">
        <ele>2183.4</ele>
        <time>2021-08-07T09:55:21Z</time>
      </trkpt>
      <trkpt lat="44.28419" lon="6.59932">
        <ele>2181.8</ele>
        <time>2021-08-07T09:55:23Z</time>
      </trkpt>
      <trkpt lat="44.28412" lon="6.59932">
        <ele>2180.6</ele>
        <time>2021-08-07T09:55:25Z</time>
      </trkpt>
      <trkpt lat="44.28405" lon="6.59933">
        <ele>2179.2</ele>
        <time>2021-08-07T09:55:27Z</time>
      </trkpt>
      <trkpt lat="44.28399" lon="6.59933">
        <ele>2177.4</ele>
        <time>2021-08-07T09:55:29Z</time>
      </trkpt>
      <trkpt lat="44.28394" lon="6.59931">
        <ele>2175.8</ele>
        <time>2021-08-07T09:55:31Z</time>
      </trkpt>
      <trkpt lat="44.28388" lon="6.59928">
        <ele>2174.6</ele>
        <time>2021-08-07T09:55:33Z</time>
      </trkpt>
      <trkpt lat="44.28382" lon="6.59928">
        <ele>2173</ele>
        <time>2021-08-07T09:55:35Z</time>
      </trkpt>
      <trkpt lat="44.28378" lon="6.59927">
        <ele>2171.2</ele>
        <time>2021-08-07T09:55:37Z</time>
      </trkpt>
      <trkpt lat="44.28376" lon="6.59919">
        <ele>2170.2</ele>
        <time>2021-08-07T09:55:40Z</time>
      </trkpt>
      <trkpt lat="44.28375" lon="6.59915">
        <ele>2169.2</ele>
        <time>2021-08-07T09:55:42Z</time>
      </trkpt>
      <trkpt lat="44.28373" lon="6.59912">
        <ele>2168</ele>
        <time>2021-08-07T09:55:44Z</time>
      </trkpt>
      <trkpt lat="44.28372" lon="6.5991">
        <ele>2167.6</ele>
        <time>2021-08-07T09:55:45Z</time>
      </trkpt>
      <trkpt lat="44.28372" lon="6.59907">
        <ele>2167</ele>
        <time>2021-08-07T09:55:46Z</time>
      </trkpt>
      <trkpt lat="44.28374" lon="6.59901">
        <ele>2165.6</ele>
        <time>2021-08-07T09:55:48Z</time>
      </trkpt>
      <trkpt lat="44.28378" lon="6.59893">
        <ele>2164.2</ele>
        <time>2021-08-07T09:55:51Z</time>
      </trkpt>
      <trkpt lat="44.28384" lon="6.59886">
        <ele>2162.8</ele>
        <time>2021-08-07T09:55:54Z</time>
      </trkpt>
      <trkpt lat="44.2839" lon="6.59879">
        <ele>2161</ele>
        <time>2021-08-07T09:55:56Z</time>
      </trkpt>
      <trkpt lat="44.28395" lon="6.59872">
        <ele>2159.8</ele>
        <time>2021-08-07T09:55:58Z</time>
      </trkpt>
      <trkpt lat="44.28398" lon="6.59866">
        <ele>2158.2</ele>
        <time>2021-08-07T09:56:00Z</time>
      </trkpt>
      <trkpt lat="44.284" lon="6.59863">
        <ele>2157.6</ele>
        <time>2021-08-07T09:56:01Z</time>
      </trkpt>
      <trkpt lat="44.28402" lon="6.59861">
        <ele>2157</ele>
        <time>2021-08-07T09:56:02Z</time>
      </trkpt>
      <trkpt lat="44.28407" lon="6.59862">
        <ele>2155.8</ele>
        <time>2021-08-07T09:56:05Z</time>
      </trkpt>
      <trkpt lat="44.28411" lon="6.59862">
        <ele>2155.4</ele>
        <time>2021-08-07T09:56:07Z</time>
      </trkpt>
      <trkpt lat="44.28414" lon="6.59858">
        <ele>2155.2</ele>
        <time>2021-08-07T09:56:09Z</time>
      </trkpt>
      <trkpt lat="44.28416" lon="6.59848">
        <ele>2154.6</ele>
        <time>2021-08-07T09:56:12Z</time>
      </trkpt>
      <trkpt lat="44.28422" lon="6.5984">
        <ele>2153.8</ele>
        <time>2021-08-07T09:56:15Z</time>
      </trkpt>
      <trkpt lat="44.28428" lon="6.59838">
        <ele>2153.4</ele>
        <time>2021-08-07T09:56:17Z</time>
      </trkpt>
      <trkpt lat="44.2843" lon="6.59836">
        <ele>2153</ele>
        <time>2021-08-07T09:56:18Z</time>
      </trkpt>
      <trkpt lat="44.28436" lon="6.59828">
        <ele>2152.2</ele>
        <time>2021-08-07T09:56:21Z</time>
      </trkpt>
      <trkpt lat="44.28443" lon="6.59822">
        <ele>2151.2</ele>
        <time>2021-08-07T09:56:25Z</time>
      </trkpt>
      <trkpt lat="44.28443" lon="6.5982">
        <ele>2151</ele>
        <time>2021-08-07T09:56:26Z</time>
      </trkpt>
      <trkpt lat="44.28442" lon="6.59808">
        <ele>2150.6</ele>
        <time>2021-08-07T09:56:31Z</time>
      </trkpt>
      <trkpt lat="44.28444" lon="6.598">
        <ele>2150.4</ele>
        <time>2021-08-07T09:56:34Z</time>
      </trkpt>
      <trkpt lat="44.28441" lon="6.59793">
        <ele>2150.2</ele>
        <time>2021-08-07T09:56:37Z</time>
      </trkpt>
      <trkpt lat="44.2843" lon="6.59745">
        <ele>2149.2</ele>
        <time>2021-08-07T09:56:52Z</time>
      </trkpt>
      <trkpt lat="44.28432" lon="6.59734">
        <ele>2147.8</ele>
        <time>2021-08-07T09:56:55Z</time>
      </trkpt>
      <trkpt lat="44.28432" lon="6.5973">
        <ele>2147.2</ele>
        <time>2021-08-07T09:56:56Z</time>
      </trkpt>
      <trkpt lat="44.28431" lon="6.59727">
        <ele>2146.6</ele>
        <time>2021-08-07T09:56:57Z</time>
      </trkpt>
      <trkpt lat="44.28424" lon="6.59721">
        <ele>2145.4</ele>
        <time>2021-08-07T09:57:01Z</time>
      </trkpt>
      <trkpt lat="44.2842" lon="6.59717">
        <ele>2145.2</ele>
        <time>2021-08-07T09:57:03Z</time>
      </trkpt>
      <trkpt lat="44.28418" lon="6.59713">
        <ele>2144.8</ele>
        <time>2021-08-07T09:57:05Z</time>
      </trkpt>
      <trkpt lat="44.28417" lon="6.59713">
        <ele>2144.2</ele>
        <time>2021-08-07T09:57:06Z</time>
      </trkpt>
      <trkpt lat="44.28416" lon="6.59715">
        <ele>2143</ele>
        <time>2021-08-07T09:57:08Z</time>
      </trkpt>
      <trkpt lat="44.28412" lon="6.5972">
        <ele>2141.8</ele>
        <time>2021-08-07T09:57:11Z</time>
      </trkpt>
      <trkpt lat="44.2841" lon="6.59705">
        <ele>2140.8</ele>
        <time>2021-08-07T09:57:16Z</time>
      </trkpt>
      <trkpt lat="44.2841" lon="6.59697">
        <ele>2139.2</ele>
        <time>2021-08-07T09:57:18Z</time>
      </trkpt>
      <trkpt lat="44.28409" lon="6.59693">
        <ele>2138.2</ele>
        <time>2021-08-07T09:57:19Z</time>
      </trkpt>
      <trkpt lat="44.28407" lon="6.59691">
        <ele>2137.4</ele>
        <time>2021-08-07T09:57:20Z</time>
      </trkpt>
      <trkpt lat="44.28405" lon="6.59688">
        <ele>2137</ele>
        <time>2021-08-07T09:57:21Z</time>
      </trkpt>
      <trkpt lat="44.28397" lon="6.59683">
        <ele>2135.6</ele>
        <time>2021-08-07T09:57:24Z</time>
      </trkpt>
      <trkpt lat="44.28396" lon="6.5968">
        <ele>2135</ele>
        <time>2021-08-07T09:57:25Z</time>
      </trkpt>
      <trkpt lat="44.28396" lon="6.59677">
        <ele>2134.4</ele>
        <time>2021-08-07T09:57:26Z</time>
      </trkpt>
      <trkpt lat="44.28396" lon="6.59676">
        <ele>2133.2</ele>
        <time>2021-08-07T09:57:28Z</time>
      </trkpt>
      <trkpt lat="44.28393" lon="6.59677">
        <ele>2132.2</ele>
        <time>2021-08-07T09:57:30Z</time>
      </trkpt>
      <trkpt lat="44.28391" lon="6.59677">
        <ele>2131.8</ele>
        <time>2021-08-07T09:57:31Z</time>
      </trkpt>
      <trkpt lat="44.2839" lon="6.59676">
        <ele>2131.4</ele>
        <time>2021-08-07T09:57:32Z</time>
      </trkpt>
      <trkpt lat="44.28387" lon="6.59674">
        <ele>2130.2</ele>
        <time>2021-08-07T09:57:34Z</time>
      </trkpt>
      <trkpt lat="44.28385" lon="6.59673">
        <ele>2129.6</ele>
        <time>2021-08-07T09:57:35Z</time>
      </trkpt>
      <trkpt lat="44.28383" lon="6.59673">
        <ele>2129</ele>
        <time>2021-08-07T09:57:36Z</time>
      </trkpt>
      <trkpt lat="44.28375" lon="6.59672">
        <ele>2127.4</ele>
        <time>2021-08-07T09:57:39Z</time>
      </trkpt>
      <trkpt lat="44.28371" lon="6.59669">
        <ele>2126</ele>
        <time>2021-08-07T09:57:41Z</time>
      </trkpt>
      <trkpt lat="44.28368" lon="6.59664">
        <ele>2124.8</ele>
        <time>2021-08-07T09:57:43Z</time>
      </trkpt>
      <trkpt lat="44.28364" lon="6.5966">
        <ele>2123.8</ele>
        <time>2021-08-07T09:57:45Z</time>
      </trkpt>
      <trkpt lat="44.2836" lon="6.59657">
        <ele>2122.2</ele>
        <time>2021-08-07T09:57:47Z</time>
      </trkpt>
      <trkpt lat="44.28355" lon="6.59654">
        <ele>2120.4</ele>
        <time>2021-08-07T09:57:49Z</time>
      </trkpt>
      <trkpt lat="44.28351" lon="6.59651">
        <ele>2119.2</ele>
        <time>2021-08-07T09:57:51Z</time>
      </trkpt>
      <trkpt lat="44.28346" lon="6.59648">
        <ele>2117.8</ele>
        <time>2021-08-07T09:57:53Z</time>
      </trkpt>
      <trkpt lat="44.2834" lon="6.59643">
        <ele>2116.6</ele>
        <time>2021-08-07T09:57:56Z</time>
      </trkpt>
      <trkpt lat="44.28335" lon="6.59639">
        <ele>2115.2</ele>
        <time>2021-08-07T09:57:58Z</time>
      </trkpt>
      <trkpt lat="44.28331" lon="6.59633">
        <ele>2113.8</ele>
        <time>2021-08-07T09:58:00Z</time>
      </trkpt>
      <trkpt lat="44.28327" lon="6.59629">
        <ele>2111.8</ele>
        <time>2021-08-07T09:58:02Z</time>
      </trkpt>
      <trkpt lat="44.28324" lon="6.59625">
        <ele>2110.2</ele>
        <time>2021-08-07T09:58:04Z</time>
      </trkpt>
      <trkpt lat="44.28323" lon="6.59624">
        <ele>2109.8</ele>
        <time>2021-08-07T09:58:05Z</time>
      </trkpt>
      <trkpt lat="44.28322" lon="6.59626">
        <ele>2108.8</ele>
        <time>2021-08-07T09:58:07Z</time>
      </trkpt>
      <trkpt lat="44.28322" lon="6.59631">
        <ele>2107.6</ele>
        <time>2021-08-07T09:58:09Z</time>
      </trkpt>
      <trkpt lat="44.28321" lon="6.59633">
        <ele>2107</ele>
        <time>2021-08-07T09:58:10Z</time>
      </trkpt>
      <trkpt lat="44.28319" lon="6.59632">
        <ele>2106.4</ele>
        <time>2021-08-07T09:58:12Z</time>
      </trkpt>
      <trkpt lat="44.28318" lon="6.5963">
        <ele>2106</ele>
        <time>2021-08-07T09:58:13Z</time>
      </trkpt>
      <trkpt lat="44.28316" lon="6.59628">
        <ele>2105.4</ele>
        <time>2021-08-07T09:58:14Z</time>
      </trkpt>
      <trkpt lat="44.28315" lon="6.5963">
        <ele>2104.8</ele>
        <time>2021-08-07T09:58:15Z</time>
      </trkpt>
      <trkpt lat="44.28312" lon="6.59634">
        <ele>2104</ele>
        <time>2021-08-07T09:58:17Z</time>
      </trkpt>
      <trkpt lat="44.28308" lon="6.59626">
        <ele>2102.8</ele>
        <time>2021-08-07T09:58:20Z</time>
      </trkpt>
      <trkpt lat="44.28306" lon="6.59625">
        <ele>2102.4</ele>
        <time>2021-08-07T09:58:21Z</time>
      </trkpt>
      <trkpt lat="44.28303" lon="6.59625">
        <ele>2101.6</ele>
        <time>2021-08-07T09:58:23Z</time>
      </trkpt>
      <trkpt lat="44.28302" lon="6.59628">
        <ele>2101.2</ele>
        <time>2021-08-07T09:58:24Z</time>
      </trkpt>
      <trkpt lat="44.28301" lon="6.59633">
        <ele>2100.2</ele>
        <time>2021-08-07T09:58:26Z</time>
      </trkpt>
      <trkpt lat="44.283" lon="6.59636">
        <ele>2099.6</ele>
        <time>2021-08-07T09:58:27Z</time>
      </trkpt>
      <trkpt lat="44.28298" lon="6.59638">
        <ele>2098.6</ele>
        <time>2021-08-07T09:58:29Z</time>
      </trkpt>
      <trkpt lat="44.28296" lon="6.59637">
        <ele>2097</ele>
        <time>2021-08-07T09:58:31Z</time>
      </trkpt>
      <trkpt lat="44.28293" lon="6.59634">
        <ele>2095.4</ele>
        <time>2021-08-07T09:58:33Z</time>
      </trkpt>
      <trkpt lat="44.2829" lon="6.5963">
        <ele>2093.6</ele>
        <time>2021-08-07T09:58:35Z</time>
      </trkpt>
      <trkpt lat="44.28288" lon="6.59626">
        <ele>2091.6</ele>
        <time>2021-08-07T09:58:37Z</time>
      </trkpt>
      <trkpt lat="44.28287" lon="6.59627">
        <ele>2090.8</ele>
        <time>2021-08-07T09:58:38Z</time>
      </trkpt>
      <trkpt lat="44.28286" lon="6.59629">
        <ele>2090</ele>
        <time>2021-08-07T09:58:39Z</time>
      </trkpt>
      <trkpt lat="44.28283" lon="6.59634">
        <ele>2088.8</ele>
        <time>2021-08-07T09:58:41Z</time>
      </trkpt>
      <trkpt lat="44.28278" lon="6.5963">
        <ele>2087.6</ele>
        <time>2021-08-07T09:58:44Z</time>
      </trkpt>
      <trkpt lat="44.28276" lon="6.59623">
        <ele>2086.4</ele>
        <time>2021-08-07T09:58:47Z</time>
      </trkpt>
      <trkpt lat="44.28275" lon="6.59622">
        <ele>2086</ele>
        <time>2021-08-07T09:58:48Z</time>
      </trkpt>
      <trkpt lat="44.28274" lon="6.59622">
        <ele>2085.4</ele>
        <time>2021-08-07T09:58:49Z</time>
      </trkpt>
      <trkpt lat="44.28273" lon="6.59622">
        <ele>2084.4</ele>
        <time>2021-08-07T09:58:51Z</time>
      </trkpt>
      <trkpt lat="44.28272" lon="6.59621">
        <ele>2083.4</ele>
        <time>2021-08-07T09:58:55Z</time>
      </trkpt>
      <trkpt lat="44.2827" lon="6.59623">
        <ele>2084.6</ele>
        <time>2021-08-07T09:59:18Z</time>
      </trkpt>
      <trkpt lat="44.28268" lon="6.59628">
        <ele>2085.2</ele>
        <time>2021-08-07T09:59:27Z</time>
      </trkpt>
      <trkpt lat="44.28265" lon="6.59628">
        <ele>2083.2</ele>
        <time>2021-08-07T09:59:33Z</time>
      </trkpt>
      <trkpt lat="44.28264" lon="6.59627">
        <ele>2082.2</ele>
        <time>2021-08-07T09:59:37Z</time>
      </trkpt>
      <trkpt lat="44.28262" lon="6.59625">
        <ele>2081.6</ele>
        <time>2021-08-07T09:59:39Z</time>
      </trkpt>
      <trkpt lat="44.28261" lon="6.59623">
        <ele>2081.2</ele>
        <time>2021-08-07T09:59:40Z</time>
      </trkpt>
      <trkpt lat="44.28258" lon="6.59624">
        <ele>2079.8</ele>
        <time>2021-08-07T09:59:43Z</time>
      </trkpt>
      <trkpt lat="44.28256" lon="6.5963">
        <ele>2078.2</ele>
        <time>2021-08-07T09:59:45Z</time>
      </trkpt>
      <trkpt lat="44.28255" lon="6.59633">
        <ele>2077</ele>
        <time>2021-08-07T09:59:46Z</time>
      </trkpt>
      <trkpt lat="44.28255" lon="6.59641">
        <ele>2075.4</ele>
        <time>2021-08-07T09:59:48Z</time>
      </trkpt>
      <trkpt lat="44.28254" lon="6.59654">
        <ele>2073.8</ele>
        <time>2021-08-07T09:59:51Z</time>
      </trkpt>
      <trkpt lat="44.28252" lon="6.59661">
        <ele>2072.6</ele>
        <time>2021-08-07T09:59:53Z</time>
      </trkpt>
      <trkpt lat="44.28249" lon="6.59665">
        <ele>2071.8</ele>
        <time>2021-08-07T09:59:55Z</time>
      </trkpt>
      <trkpt lat="44.28247" lon="6.59664">
        <ele>2071.2</ele>
        <time>2021-08-07T09:59:56Z</time>
      </trkpt>
      <trkpt lat="44.28243" lon="6.59659">
        <ele>2069.8</ele>
        <time>2021-08-07T09:59:58Z</time>
      </trkpt>
      <trkpt lat="44.28237" lon="6.59653">
        <ele>2068</ele>
        <time>2021-08-07T10:00:00Z</time>
      </trkpt>
      <trkpt lat="44.28233" lon="6.5965">
        <ele>2066.8</ele>
        <time>2021-08-07T10:00:01Z</time>
      </trkpt>
      <trkpt lat="44.28231" lon="6.59647">
        <ele>2065.4</ele>
        <time>2021-08-07T10:00:02Z</time>
      </trkpt>
      <trkpt lat="44.28226" lon="6.59639">
        <ele>2063.8</ele>
        <time>2021-08-07T10:00:04Z</time>
      </trkpt>
      <trkpt lat="44.28223" lon="6.59633">
        <ele>2062.4</ele>
        <time>2021-08-07T10:00:06Z</time>
      </trkpt>
      <trkpt lat="44.28222" lon="6.5963">
        <ele>2061.6</ele>
        <time>2021-08-07T10:00:07Z</time>
      </trkpt>
      <trkpt lat="44.28222" lon="6.59627">
        <ele>2060.8</ele>
        <time>2021-08-07T10:00:08Z</time>
      </trkpt>
      <trkpt lat="44.28222" lon="6.59623">
        <ele>2059.6</ele>
        <time>2021-08-07T10:00:10Z</time>
      </trkpt>
      <trkpt lat="44.28221" lon="6.59623">
        <ele>2058.4</ele>
        <time>2021-08-07T10:00:13Z</time>
      </trkpt>
      <trkpt lat="44.28214" lon="6.59625">
        <ele>2057.2</ele>
        <time>2021-08-07T10:00:17Z</time>
      </trkpt>
      <trkpt lat="44.28211" lon="6.59626">
        <ele>2056.2</ele>
        <time>2021-08-07T10:00:19Z</time>
      </trkpt>
      <trkpt lat="44.2821" lon="6.5963">
        <ele>2054.6</ele>
        <time>2021-08-07T10:00:21Z</time>
      </trkpt>
      <trkpt lat="44.28207" lon="6.59632">
        <ele>2053.6</ele>
        <time>2021-08-07T10:00:23Z</time>
      </trkpt>
      <trkpt lat="44.28206" lon="6.59633">
        <ele>2053</ele>
        <time>2021-08-07T10:00:24Z</time>
      </trkpt>
      <trkpt lat="44.28203" lon="6.59632">
        <ele>2052</ele>
        <time>2021-08-07T10:00:26Z</time>
      </trkpt>
      <trkpt lat="44.28201" lon="6.59632">
        <ele>2051.6</ele>
        <time>2021-08-07T10:00:27Z</time>
      </trkpt>
      <trkpt lat="44.282" lon="6.5963">
        <ele>2051</ele>
        <time>2021-08-07T10:00:28Z</time>
      </trkpt>
      <trkpt lat="44.28199" lon="6.59628">
        <ele>2050</ele>
        <time>2021-08-07T10:00:30Z</time>
      </trkpt>
      <trkpt lat="44.28197" lon="6.59629">
        <ele>2048.8</ele>
        <time>2021-08-07T10:00:34Z</time>
      </trkpt>
      <trkpt lat="44.28196" lon="6.59632">
        <ele>2047.6</ele>
        <time>2021-08-07T10:00:38Z</time>
      </trkpt>
      <trkpt lat="44.28194" lon="6.59635">
        <ele>2047.2</ele>
        <time>2021-08-07T10:00:39Z</time>
      </trkpt>
      <trkpt lat="44.28192" lon="6.59635">
        <ele>2046.4</ele>
        <time>2021-08-07T10:00:41Z</time>
      </trkpt>
      <trkpt lat="44.2819" lon="6.59632">
        <ele>2045.6</ele>
        <time>2021-08-07T10:00:43Z</time>
      </trkpt>
      <trkpt lat="44.28188" lon="6.59629">
        <ele>2045.2</ele>
        <time>2021-08-07T10:00:44Z</time>
      </trkpt>
      <trkpt lat="44.28187" lon="6.5962">
        <ele>2044</ele>
        <time>2021-08-07T10:00:47Z</time>
      </trkpt>
      <trkpt lat="44.28186" lon="6.59619">
        <ele>2043.6</ele>
        <time>2021-08-07T10:00:48Z</time>
      </trkpt>
      <trkpt lat="44.28182" lon="6.59618">
        <ele>2042.8</ele>
        <time>2021-08-07T10:00:51Z</time>
      </trkpt>
      <trkpt lat="44.2818" lon="6.59619">
        <ele>2042.2</ele>
        <time>2021-08-07T10:00:53Z</time>
      </trkpt>
      <trkpt lat="44.28179" lon="6.59618">
        <ele>2041.6</ele>
        <time>2021-08-07T10:00:54Z</time>
      </trkpt>
      <trkpt lat="44.28178" lon="6.59612">
        <ele>2040.6</ele>
        <time>2021-08-07T10:00:56Z</time>
      </trkpt>
      <trkpt lat="44.28175" lon="6.59603">
        <ele>2039.2</ele>
        <time>2021-08-07T10:00:58Z</time>
      </trkpt>
      <trkpt lat="44.28172" lon="6.59596">
        <ele>2037.6</ele>
        <time>2021-08-07T10:01:00Z</time>
      </trkpt>
      <trkpt lat="44.28171" lon="6.59586">
        <ele>2036.2</ele>
        <time>2021-08-07T10:01:03Z</time>
      </trkpt>
      <trkpt lat="44.28171" lon="6.59576">
        <ele>2034.8</ele>
        <time>2021-08-07T10:01:06Z</time>
      </trkpt>
      <trkpt lat="44.28173" lon="6.59571">
        <ele>2033.2</ele>
        <time>2021-08-07T10:01:08Z</time>
      </trkpt>
      <trkpt lat="44.28173" lon="6.59569">
        <ele>2032.2</ele>
        <time>2021-08-07T10:01:09Z</time>
      </trkpt>
      <trkpt lat="44.28172" lon="6.59567">
        <ele>2031.6</ele>
        <time>2021-08-07T10:01:10Z</time>
      </trkpt>
      <trkpt lat="44.28171" lon="6.59564">
        <ele>2030.2</ele>
        <time>2021-08-07T10:01:12Z</time>
      </trkpt>
      <trkpt lat="44.2817" lon="6.59558">
        <ele>2029</ele>
        <time>2021-08-07T10:01:14Z</time>
      </trkpt>
      <trkpt lat="44.28168" lon="6.59556">
        <ele>2028</ele>
        <time>2021-08-07T10:01:16Z</time>
      </trkpt>
      <trkpt lat="44.28165" lon="6.59551">
        <ele>2027.2</ele>
        <time>2021-08-07T10:01:23Z</time>
      </trkpt>
      <trkpt lat="44.28164" lon="6.59549">
        <ele>2027</ele>
        <time>2021-08-07T10:01:25Z</time>
      </trkpt>
      <trkpt lat="44.28163" lon="6.59548">
        <ele>2026.8</ele>
        <time>2021-08-07T10:01:26Z</time>
      </trkpt>
      <trkpt lat="44.28159" lon="6.59541">
        <ele>2025.8</ele>
        <time>2021-08-07T10:01:29Z</time>
      </trkpt>
      <trkpt lat="44.28156" lon="6.59536">
        <ele>2024.8</ele>
        <time>2021-08-07T10:01:32Z</time>
      </trkpt>
      <trkpt lat="44.28153" lon="6.59529">
        <ele>2024</ele>
        <time>2021-08-07T10:01:36Z</time>
      </trkpt>
      <trkpt lat="44.28152" lon="6.59529">
        <ele>2023.8</ele>
        <time>2021-08-07T10:01:37Z</time>
      </trkpt>
      <trkpt lat="44.2815" lon="6.59529">
        <ele>2022.6</ele>
        <time>2021-08-07T10:01:43Z</time>
      </trkpt>
      <trkpt lat="44.28149" lon="6.59532">
        <ele>2021.4</ele>
        <time>2021-08-07T10:01:50Z</time>
      </trkpt>
      <trkpt lat="44.28149" lon="6.59531">
        <ele>2021.2</ele>
        <time>2021-08-07T10:01:51Z</time>
      </trkpt>
      <trkpt lat="44.28148" lon="6.59528">
        <ele>2020.4</ele>
        <time>2021-08-07T10:01:53Z</time>
      </trkpt>
      <trkpt lat="44.28146" lon="6.59524">
        <ele>2019.8</ele>
        <time>2021-08-07T10:01:55Z</time>
      </trkpt>
      <trkpt lat="44.28143" lon="6.5952">
        <ele>2019</ele>
        <time>2021-08-07T10:01:57Z</time>
      </trkpt>
      <trkpt lat="44.28142" lon="6.59518">
        <ele>2018.4</ele>
        <time>2021-08-07T10:01:58Z</time>
      </trkpt>
      <trkpt lat="44.28142" lon="6.59513">
        <ele>2017.8</ele>
        <time>2021-08-07T10:01:59Z</time>
      </trkpt>
      <trkpt lat="44.28139" lon="6.59502">
        <ele>2016.2</ele>
        <time>2021-08-07T10:02:01Z</time>
      </trkpt>
      <trkpt lat="44.28137" lon="6.59498">
        <ele>2015.2</ele>
        <time>2021-08-07T10:02:02Z</time>
      </trkpt>
      <trkpt lat="44.28132" lon="6.59493">
        <ele>2013.4</ele>
        <time>2021-08-07T10:02:04Z</time>
      </trkpt>
      <trkpt lat="44.2813" lon="6.59486">
        <ele>2012.4</ele>
        <time>2021-08-07T10:02:06Z</time>
      </trkpt>
      <trkpt lat="44.28128" lon="6.59477">
        <ele>2010.8</ele>
        <time>2021-08-07T10:02:08Z</time>
      </trkpt>
      <trkpt lat="44.28125" lon="6.5947">
        <ele>2009.6</ele>
        <time>2021-08-07T10:02:10Z</time>
      </trkpt>
      <trkpt lat="44.2812" lon="6.59464">
        <ele>2008</ele>
        <time>2021-08-07T10:02:12Z</time>
      </trkpt>
      <trkpt lat="44.28115" lon="6.59457">
        <ele>2006.2</ele>
        <time>2021-08-07T10:02:14Z</time>
      </trkpt>
      <trkpt lat="44.2811" lon="6.5945">
        <ele>2004.4</ele>
        <time>2021-08-07T10:02:16Z</time>
      </trkpt>
      <trkpt lat="44.28105" lon="6.59445">
        <ele>2003.2</ele>
        <time>2021-08-07T10:02:18Z</time>
      </trkpt>
      <trkpt lat="44.28098" lon="6.59437">
        <ele>2002.4</ele>
        <time>2021-08-07T10:02:20Z</time>
      </trkpt>
      <trkpt lat="44.28095" lon="6.59433">
        <ele>2001.8</ele>
        <time>2021-08-07T10:02:21Z</time>
      </trkpt>
      <trkpt lat="44.2809" lon="6.59425">
        <ele>2000.4</ele>
        <time>2021-08-07T10:02:23Z</time>
      </trkpt>
      <trkpt lat="44.28089" lon="6.59416">
        <ele>1999.4</ele>
        <time>2021-08-07T10:02:25Z</time>
      </trkpt>
      <trkpt lat="44.2809" lon="6.59404">
        <ele>1998.4</ele>
        <time>2021-08-07T10:02:27Z</time>
      </trkpt>
      <trkpt lat="44.28091" lon="6.59396">
        <ele>1997.2</ele>
        <time>2021-08-07T10:02:29Z</time>
      </trkpt>
      <trkpt lat="44.28087" lon="6.59395">
        <ele>1995.8</ele>
        <time>2021-08-07T10:02:31Z</time>
      </trkpt>
      <trkpt lat="44.28084" lon="6.59394">
        <ele>1995.2</ele>
        <time>2021-08-07T10:02:32Z</time>
      </trkpt>
      <trkpt lat="44.28082" lon="6.59395">
        <ele>1994.8</ele>
        <time>2021-08-07T10:02:33Z</time>
      </trkpt>
      <trkpt lat="44.28079" lon="6.59396">
        <ele>1994</ele>
        <time>2021-08-07T10:02:35Z</time>
      </trkpt>
      <trkpt lat="44.28078" lon="6.59393">
        <ele>1993.6</ele>
        <time>2021-08-07T10:02:37Z</time>
      </trkpt>
      <trkpt lat="44.28083" lon="6.59382">
        <ele>1992.6</ele>
        <time>2021-08-07T10:02:41Z</time>
      </trkpt>
      <trkpt lat="44.28086" lon="6.59374">
        <ele>1991.2</ele>
        <time>2021-08-07T10:02:43Z</time>
      </trkpt>
      <trkpt lat="44.28089" lon="6.59366">
        <ele>1989.6</ele>
        <time>2021-08-07T10:02:45Z</time>
      </trkpt>
      <trkpt lat="44.28088" lon="6.59355">
        <ele>1988.6</ele>
        <time>2021-08-07T10:02:48Z</time>
      </trkpt>
      <trkpt lat="44.28085" lon="6.59344">
        <ele>1987.8</ele>
        <time>2021-08-07T10:02:52Z</time>
      </trkpt>
      <trkpt lat="44.28084" lon="6.59341">
        <ele>1987.6</ele>
        <time>2021-08-07T10:02:53Z</time>
      </trkpt>
      <trkpt lat="44.28082" lon="6.59337">
        <ele>1987.2</ele>
        <time>2021-08-07T10:02:54Z</time>
      </trkpt>
      <trkpt lat="44.28076" lon="6.59328">
        <ele>1986.2</ele>
        <time>2021-08-07T10:02:57Z</time>
      </trkpt>
      <trkpt lat="44.28074" lon="6.59321">
        <ele>1985.2</ele>
        <time>2021-08-07T10:02:59Z</time>
      </trkpt>
      <trkpt lat="44.28073" lon="6.59316">
        <ele>1984.8</ele>
        <time>2021-08-07T10:03:00Z</time>
      </trkpt>
      <trkpt lat="44.28075" lon="6.59307">
        <ele>1983.6</ele>
        <time>2021-08-07T10:03:02Z</time>
      </trkpt>
      <trkpt lat="44.28076" lon="6.59297">
        <ele>1982.4</ele>
        <time>2021-08-07T10:03:04Z</time>
      </trkpt>
      <trkpt lat="44.28077" lon="6.59291">
        <ele>1981.4</ele>
        <time>2021-08-07T10:03:05Z</time>
      </trkpt>
      <trkpt lat="44.28077" lon="6.59285">
        <ele>1980</ele>
        <time>2021-08-07T10:03:06Z</time>
      </trkpt>
      <trkpt lat="44.28077" lon="6.5928">
        <ele>1978.8</ele>
        <time>2021-08-07T10:03:07Z</time>
      </trkpt>
      <trkpt lat="44.28075" lon="6.59271">
        <ele>1976.8</ele>
        <time>2021-08-07T10:03:09Z</time>
      </trkpt>
      <trkpt lat="44.28073" lon="6.59268">
        <ele>1975.8</ele>
        <time>2021-08-07T10:03:10Z</time>
      </trkpt>
      <trkpt lat="44.28071" lon="6.59263">
        <ele>1974.6</ele>
        <time>2021-08-07T10:03:11Z</time>
      </trkpt>
      <trkpt lat="44.28066" lon="6.59252">
        <ele>1972.8</ele>
        <time>2021-08-07T10:03:13Z</time>
      </trkpt>
      <trkpt lat="44.28061" lon="6.59239">
        <ele>1971.4</ele>
        <time>2021-08-07T10:03:15Z</time>
      </trkpt>
      <trkpt lat="44.28053" lon="6.59225">
        <ele>1970</ele>
        <time>2021-08-07T10:03:18Z</time>
      </trkpt>
      <trkpt lat="44.28047" lon="6.59213">
        <ele>1968.8</ele>
        <time>2021-08-07T10:03:21Z</time>
      </trkpt>
      <trkpt lat="44.28044" lon="6.59208">
        <ele>1968.6</ele>
        <time>2021-08-07T10:03:22Z</time>
      </trkpt>
      <trkpt lat="44.28041" lon="6.59194">
        <ele>1967.6</ele>
        <time>2021-08-07T10:03:24Z</time>
      </trkpt>
      <trkpt lat="44.28039" lon="6.59186">
        <ele>1967</ele>
        <time>2021-08-07T10:03:25Z</time>
      </trkpt>
      <trkpt lat="44.28036" lon="6.59178">
        <ele>1966</ele>
        <time>2021-08-07T10:03:26Z</time>
      </trkpt>
      <trkpt lat="44.28032" lon="6.59172">
        <ele>1965.4</ele>
        <time>2021-08-07T10:03:27Z</time>
      </trkpt>
      <trkpt lat="44.28027" lon="6.59166">
        <ele>1964.8</ele>
        <time>2021-08-07T10:03:28Z</time>
      </trkpt>
      <trkpt lat="44.28023" lon="6.5916">
        <ele>1964.2</ele>
        <time>2021-08-07T10:03:29Z</time>
      </trkpt>
      <trkpt lat="44.2802" lon="6.59153">
        <ele>1963.8</ele>
        <time>2021-08-07T10:03:30Z</time>
      </trkpt>
      <trkpt lat="44.28011" lon="6.59136">
        <ele>1962.2</ele>
        <time>2021-08-07T10:03:33Z</time>
      </trkpt>
      <trkpt lat="44.28005" lon="6.59129">
        <ele>1960.8</ele>
        <time>2021-08-07T10:03:35Z</time>
      </trkpt>
      <trkpt lat="44.28003" lon="6.59126">
        <ele>1959.4</ele>
        <time>2021-08-07T10:03:36Z</time>
      </trkpt>
      <trkpt lat="44.28002" lon="6.59124">
        <ele>1958.2</ele>
        <time>2021-08-07T10:03:37Z</time>
      </trkpt>
      <trkpt lat="44.28" lon="6.59121">
        <ele>1957</ele>
        <time>2021-08-07T10:03:38Z</time>
      </trkpt>
      <trkpt lat="44.27994" lon="6.59115">
        <ele>1956</ele>
        <time>2021-08-07T10:03:40Z</time>
      </trkpt>
      <trkpt lat="44.27986" lon="6.59104">
        <ele>1954.8</ele>
        <time>2021-08-07T10:03:43Z</time>
      </trkpt>
      <trkpt lat="44.27983" lon="6.59099">
        <ele>1954</ele>
        <time>2021-08-07T10:03:44Z</time>
      </trkpt>
      <trkpt lat="44.2798" lon="6.59093">
        <ele>1953</ele>
        <time>2021-08-07T10:03:45Z</time>
      </trkpt>
      <trkpt lat="44.27977" lon="6.59087">
        <ele>1952.4</ele>
        <time>2021-08-07T10:03:46Z</time>
      </trkpt>
      <trkpt lat="44.27974" lon="6.59083">
        <ele>1951.6</ele>
        <time>2021-08-07T10:03:47Z</time>
      </trkpt>
      <trkpt lat="44.27969" lon="6.59077">
        <ele>1949.6</ele>
        <time>2021-08-07T10:03:49Z</time>
      </trkpt>
      <trkpt lat="44.27967" lon="6.59075">
        <ele>1948.6</ele>
        <time>2021-08-07T10:03:50Z</time>
      </trkpt>
      <trkpt lat="44.27963" lon="6.59071">
        <ele>1946.8</ele>
        <time>2021-08-07T10:03:52Z</time>
      </trkpt>
      <trkpt lat="44.27959" lon="6.59069">
        <ele>1945.4</ele>
        <time>2021-08-07T10:03:54Z</time>
      </trkpt>
      <trkpt lat="44.27954" lon="6.59066">
        <ele>1944</ele>
        <time>2021-08-07T10:03:57Z</time>
      </trkpt>
      <trkpt lat="44.27951" lon="6.59065">
        <ele>1943</ele>
        <time>2021-08-07T10:03:59Z</time>
      </trkpt>
      <trkpt lat="44.27949" lon="6.59066">
        <ele>1942.6</ele>
        <time>2021-08-07T10:04:00Z</time>
      </trkpt>
      <trkpt lat="44.27947" lon="6.59068">
        <ele>1941.6</ele>
        <time>2021-08-07T10:04:02Z</time>
      </trkpt>
      <trkpt lat="44.27945" lon="6.5907">
        <ele>1940.6</ele>
        <time>2021-08-07T10:04:04Z</time>
      </trkpt>
      <trkpt lat="44.27943" lon="6.5907">
        <ele>1940.2</ele>
        <time>2021-08-07T10:04:05Z</time>
      </trkpt>
      <trkpt lat="44.27939" lon="6.5907">
        <ele>1939.8</ele>
        <time>2021-08-07T10:04:07Z</time>
      </trkpt>
      <trkpt lat="44.27933" lon="6.59071">
        <ele>1939</ele>
        <time>2021-08-07T10:04:09Z</time>
      </trkpt>
      <trkpt lat="44.2793" lon="6.5907">
        <ele>1938.2</ele>
        <time>2021-08-07T10:04:11Z</time>
      </trkpt>
      <trkpt lat="44.27929" lon="6.59071">
        <ele>1937.6</ele>
        <time>2021-08-07T10:04:12Z</time>
      </trkpt>
      <trkpt lat="44.27927" lon="6.59078">
        <ele>1936.4</ele>
        <time>2021-08-07T10:04:14Z</time>
      </trkpt>
      <trkpt lat="44.27927" lon="6.59086">
        <ele>1935.4</ele>
        <time>2021-08-07T10:04:16Z</time>
      </trkpt>
      <trkpt lat="44.27926" lon="6.59093">
        <ele>1934.6</ele>
        <time>2021-08-07T10:04:18Z</time>
      </trkpt>
      <trkpt lat="44.27925" lon="6.59095">
        <ele>1934</ele>
        <time>2021-08-07T10:04:19Z</time>
      </trkpt>
      <trkpt lat="44.27923" lon="6.59095">
        <ele>1932.8</ele>
        <time>2021-08-07T10:04:21Z</time>
      </trkpt>
      <trkpt lat="44.2792" lon="6.59095">
        <ele>1931.6</ele>
        <time>2021-08-07T10:04:23Z</time>
      </trkpt>
      <trkpt lat="44.27909" lon="6.59097">
        <ele>1930.2</ele>
        <time>2021-08-07T10:04:28Z</time>
      </trkpt>
      <trkpt lat="44.27903" lon="6.59097">
        <ele>1928.8</ele>
        <time>2021-08-07T10:04:30Z</time>
      </trkpt>
      <trkpt lat="44.27898" lon="6.59095">
        <ele>1927.4</ele>
        <time>2021-08-07T10:04:32Z</time>
      </trkpt>
      <trkpt lat="44.27892" lon="6.59093">
        <ele>1926.2</ele>
        <time>2021-08-07T10:04:34Z</time>
      </trkpt>
      <trkpt lat="44.27888" lon="6.59091">
        <ele>1924.8</ele>
        <time>2021-08-07T10:04:36Z</time>
      </trkpt>
      <trkpt lat="44.27885" lon="6.59089">
        <ele>1923.4</ele>
        <time>2021-08-07T10:04:38Z</time>
      </trkpt>
      <trkpt lat="44.27885" lon="6.59089">
        <ele>1922.2</ele>
        <time>2021-08-07T10:04:40Z</time>
      </trkpt>
      <trkpt lat="44.27884" lon="6.59089">
        <ele>1921</ele>
        <time>2021-08-07T10:04:44Z</time>
      </trkpt>
      <trkpt lat="44.27877" lon="6.59097">
        <ele>1920</ele>
        <time>2021-08-07T10:05:09Z</time>
      </trkpt>
      <trkpt lat="44.27876" lon="6.59094">
        <ele>1919</ele>
        <time>2021-08-07T10:05:13Z</time>
      </trkpt>
      <trkpt lat="44.27875" lon="6.59095">
        <ele>1918.8</ele>
        <time>2021-08-07T10:05:22Z</time>
      </trkpt>
      <trkpt lat="44.27874" lon="6.59096">
        <ele>1918.8</ele>
        <time>2021-08-07T10:05:27Z</time>
      </trkpt>
      <trkpt lat="44.27874" lon="6.5909">
        <ele>1918.4</ele>
        <time>2021-08-07T10:05:31Z</time>
      </trkpt>
      <trkpt lat="44.27874" lon="6.59086">
        <ele>1918.2</ele>
        <time>2021-08-07T10:05:36Z</time>
      </trkpt>
      <trkpt lat="44.27873" lon="6.59086">
        <ele>1918</ele>
        <time>2021-08-07T10:05:37Z</time>
      </trkpt>
      <trkpt lat="44.27873" lon="6.59085">
        <ele>1917.8</ele>
        <time>2021-08-07T10:05:38Z</time>
      </trkpt>
      <trkpt lat="44.2787" lon="6.5908">
        <ele>1917</ele>
        <time>2021-08-07T10:05:43Z</time>
      </trkpt>
      <trkpt lat="44.2787" lon="6.59079">
        <ele>1916.8</ele>
        <time>2021-08-07T10:05:44Z</time>
      </trkpt>
      <trkpt lat="44.27869" lon="6.59078">
        <ele>1916.4</ele>
        <time>2021-08-07T10:05:45Z</time>
      </trkpt>
      <trkpt lat="44.27868" lon="6.59077">
        <ele>1916</ele>
        <time>2021-08-07T10:05:46Z</time>
      </trkpt>
      <trkpt lat="44.27868" lon="6.59076">
        <ele>1915.6</ele>
        <time>2021-08-07T10:05:47Z</time>
      </trkpt>
      <trkpt lat="44.27864" lon="6.59068">
        <ele>1914.8</ele>
        <time>2021-08-07T10:05:53Z</time>
      </trkpt>
      <trkpt lat="44.27863" lon="6.59067">
        <ele>1914.6</ele>
        <time>2021-08-07T10:05:54Z</time>
      </trkpt>
      <trkpt lat="44.27861" lon="6.59062">
        <ele>1913.4</ele>
        <time>2021-08-07T10:05:58Z</time>
      </trkpt>
      <trkpt lat="44.27859" lon="6.59061">
        <ele>1912.8</ele>
        <time>2021-08-07T10:05:59Z</time>
      </trkpt>
      <trkpt lat="44.27859" lon="6.59062">
        <ele>1912</ele>
        <time>2021-08-07T10:06:00Z</time>
      </trkpt>
      <trkpt lat="44.27857" lon="6.59063">
        <ele>1910.4</ele>
        <time>2021-08-07T10:06:02Z</time>
      </trkpt>
      <trkpt lat="44.27853" lon="6.59059">
        <ele>1909.2</ele>
        <time>2021-08-07T10:06:05Z</time>
      </trkpt>
      <trkpt lat="44.27852" lon="6.59056">
        <ele>1908.4</ele>
        <time>2021-08-07T10:06:07Z</time>
      </trkpt>
      <trkpt lat="44.27852" lon="6.59054">
        <ele>1907.8</ele>
        <time>2021-08-07T10:06:08Z</time>
      </trkpt>
      <trkpt lat="44.27851" lon="6.5905">
        <ele>1906.8</ele>
        <time>2021-08-07T10:06:10Z</time>
      </trkpt>
      <trkpt lat="44.27852" lon="6.59048">
        <ele>1905.4</ele>
        <time>2021-08-07T10:06:13Z</time>
      </trkpt>
      <trkpt lat="44.27852" lon="6.59045">
        <ele>1904.6</ele>
        <time>2021-08-07T10:06:17Z</time>
      </trkpt>
      <trkpt lat="44.27852" lon="6.59042">
        <ele>1904.4</ele>
        <time>2021-08-07T10:06:18Z</time>
      </trkpt>
      <trkpt lat="44.2785" lon="6.59037">
        <ele>1903.2</ele>
        <time>2021-08-07T10:06:21Z</time>
      </trkpt>
      <trkpt lat="44.27846" lon="6.59032">
        <ele>1901.8</ele>
        <time>2021-08-07T10:06:24Z</time>
      </trkpt>
      <trkpt lat="44.27846" lon="6.59027">
        <ele>1900.6</ele>
        <time>2021-08-07T10:06:26Z</time>
      </trkpt>
      <trkpt lat="44.27845" lon="6.59023">
        <ele>1898.8</ele>
        <time>2021-08-07T10:06:28Z</time>
      </trkpt>
      <trkpt lat="44.27845" lon="6.59021">
        <ele>1898.2</ele>
        <time>2021-08-07T10:06:29Z</time>
      </trkpt>
      <trkpt lat="44.27845" lon="6.5902">
        <ele>1897.6</ele>
        <time>2021-08-07T10:06:30Z</time>
      </trkpt>
      <trkpt lat="44.27845" lon="6.59018">
        <ele>1897</ele>
        <time>2021-08-07T10:06:31Z</time>
      </trkpt>
      <trkpt lat="44.27845" lon="6.59016">
        <ele>1896.4</ele>
        <time>2021-08-07T10:06:32Z</time>
      </trkpt>
      <trkpt lat="44.27844" lon="6.59011">
        <ele>1895.2</ele>
        <time>2021-08-07T10:06:34Z</time>
      </trkpt>
      <trkpt lat="44.27843" lon="6.59006">
        <ele>1894.2</ele>
        <time>2021-08-07T10:06:36Z</time>
      </trkpt>
      <trkpt lat="44.27841" lon="6.59001">
        <ele>1892.8</ele>
        <time>2021-08-07T10:06:38Z</time>
      </trkpt>
      <trkpt lat="44.2784" lon="6.58996">
        <ele>1891.4</ele>
        <time>2021-08-07T10:06:40Z</time>
      </trkpt>
      <trkpt lat="44.27839" lon="6.58991">
        <ele>1890</ele>
        <time>2021-08-07T10:06:42Z</time>
      </trkpt>
      <trkpt lat="44.27837" lon="6.58986">
        <ele>1889</ele>
        <time>2021-08-07T10:06:44Z</time>
      </trkpt>
      <trkpt lat="44.27836" lon="6.58983">
        <ele>1888.6</ele>
        <time>2021-08-07T10:06:45Z</time>
      </trkpt>
      <trkpt lat="44.27836" lon="6.5898">
        <ele>1888</ele>
        <time>2021-08-07T10:06:46Z</time>
      </trkpt>
      <trkpt lat="44.27835" lon="6.58978">
        <ele>1887.4</ele>
        <time>2021-08-07T10:06:47Z</time>
      </trkpt>
      <trkpt lat="44.27833" lon="6.58973">
        <ele>1885.6</ele>
        <time>2021-08-07T10:06:49Z</time>
      </trkpt>
      <trkpt lat="44.27831" lon="6.58969">
        <ele>1884.4</ele>
        <time>2021-08-07T10:06:51Z</time>
      </trkpt>
      <trkpt lat="44.27829" lon="6.58965">
        <ele>1883.4</ele>
        <time>2021-08-07T10:06:53Z</time>
      </trkpt>
      <trkpt lat="44.27829" lon="6.58964">
        <ele>1883</ele>
        <time>2021-08-07T10:06:54Z</time>
      </trkpt>
      <trkpt lat="44.27829" lon="6.58964">
        <ele>1882.6</ele>
        <time>2021-08-07T10:06:55Z</time>
      </trkpt>
      <trkpt lat="44.27829" lon="6.58964">
        <ele>1882</ele>
        <time>2021-08-07T10:06:57Z</time>
      </trkpt>
      <trkpt lat="44.27828" lon="6.58964">
        <ele>1882</ele>
        <time>2021-08-07T10:06:58Z</time>
      </trkpt>
      <trkpt lat="44.27828" lon="6.58963">
        <ele>1881.8</ele>
        <time>2021-08-07T10:07:00Z</time>
      </trkpt>
      <trkpt lat="44.27828" lon="6.58962">
        <ele>1881.6</ele>
        <time>2021-08-07T10:07:01Z</time>
      </trkpt>
      <trkpt lat="44.27828" lon="6.58961">
        <ele>1881.6</ele>
        <time>2021-08-07T10:07:04Z</time>
      </trkpt>
      <trkpt lat="44.27827" lon="6.58957">
        <ele>1881.4</ele>
        <time>2021-08-07T10:07:20Z</time>
      </trkpt>
      <trkpt lat="44.27825" lon="6.58954">
        <ele>1881</ele>
        <time>2021-08-07T10:07:24Z</time>
      </trkpt>
      <trkpt lat="44.27825" lon="6.58955">
        <ele>1880.8</ele>
        <time>2021-08-07T10:07:25Z</time>
      </trkpt>
      <trkpt lat="44.27822" lon="6.58962">
        <ele>1879.6</ele>
        <time>2021-08-07T10:07:28Z</time>
      </trkpt>
      <trkpt lat="44.2782" lon="6.58965">
        <ele>1878.8</ele>
        <time>2021-08-07T10:07:31Z</time>
      </trkpt>
      <trkpt lat="44.2782" lon="6.58966">
        <ele>1878.4</ele>
        <time>2021-08-07T10:07:32Z</time>
      </trkpt>
      <trkpt lat="44.27816" lon="6.58973">
        <ele>1877.4</ele>
        <time>2021-08-07T10:07:40Z</time>
      </trkpt>
      <trkpt lat="44.27815" lon="6.58977">
        <ele>1876.4</ele>
        <time>2021-08-07T10:07:48Z</time>
      </trkpt>
      <trkpt lat="44.27816" lon="6.58979">
        <ele>1876.2</ele>
        <time>2021-08-07T10:07:54Z</time>
      </trkpt>
      <trkpt lat="44.27815" lon="6.58979">
        <ele>1876</ele>
        <time>2021-08-07T10:07:58Z</time>
      </trkpt>
      <trkpt lat="44.27814" lon="6.58976">
        <ele>1876</ele>
        <time>2021-08-07T10:08:00Z</time>
      </trkpt>
      <trkpt lat="44.2781" lon="6.58967">
        <ele>1875.8</ele>
        <time>2021-08-07T10:08:06Z</time>
      </trkpt>
      <trkpt lat="44.2781" lon="6.58966">
        <ele>1875.8</ele>
        <time>2021-08-07T10:08:07Z</time>
      </trkpt>
      <trkpt lat="44.27809" lon="6.58964">
        <ele>1875.8</ele>
        <time>2021-08-07T10:08:08Z</time>
      </trkpt>
      <trkpt lat="44.27808" lon="6.5896">
        <ele>1875.8</ele>
        <time>2021-08-07T10:08:12Z</time>
      </trkpt>
      <trkpt lat="44.27806" lon="6.58959">
        <ele>1875.8</ele>
        <time>2021-08-07T10:08:14Z</time>
      </trkpt>
      <trkpt lat="44.27805" lon="6.58958">
        <ele>1876</ele>
        <time>2021-08-07T10:08:15Z</time>
      </trkpt>
      <trkpt lat="44.27804" lon="6.58956">
        <ele>1876</ele>
        <time>2021-08-07T10:08:17Z</time>
      </trkpt>
      <trkpt lat="44.27803" lon="6.58954">
        <ele>1876.4</ele>
        <time>2021-08-07T10:08:19Z</time>
      </trkpt>
      <trkpt lat="44.27801" lon="6.5895">
        <ele>1877</ele>
        <time>2021-08-07T10:08:22Z</time>
      </trkpt>
      <trkpt lat="44.278" lon="6.58948">
        <ele>1877.2</ele>
        <time>2021-08-07T10:08:24Z</time>
      </trkpt>
      <trkpt lat="44.278" lon="6.58947">
        <ele>1877.4</ele>
        <time>2021-08-07T10:08:25Z</time>
      </trkpt>
      <trkpt lat="44.278" lon="6.58945">
        <ele>1877.4</ele>
        <time>2021-08-07T10:08:26Z</time>
      </trkpt>
      <trkpt lat="44.27799" lon="6.58944">
        <ele>1877.8</ele>
        <time>2021-08-07T10:08:27Z</time>
      </trkpt>
      <trkpt lat="44.27799" lon="6.5894">
        <ele>1878.6</ele>
        <time>2021-08-07T10:08:31Z</time>
      </trkpt>
      <trkpt lat="44.278" lon="6.58939">
        <ele>1878.8</ele>
        <time>2021-08-07T10:08:32Z</time>
      </trkpt>
      <trkpt lat="44.27798" lon="6.58934">
        <ele>1879.6</ele>
        <time>2021-08-07T10:08:36Z</time>
      </trkpt>
      <trkpt lat="44.27798" lon="6.58933">
        <ele>1879.8</ele>
        <time>2021-08-07T10:08:37Z</time>
      </trkpt>
      <trkpt lat="44.27798" lon="6.58931">
        <ele>1880.4</ele>
        <time>2021-08-07T10:08:40Z</time>
      </trkpt>
      <trkpt lat="44.27803" lon="6.58929">
        <ele>1880.4</ele>
        <time>2021-08-07T10:09:04Z</time>
      </trkpt>
      <trkpt lat="44.27801" lon="6.58929">
        <ele>1880.4</ele>
        <time>2021-08-07T10:09:10Z</time>
      </trkpt>
      <trkpt lat="44.27804" lon="6.58926">
        <ele>1880.6</ele>
        <time>2021-08-07T10:09:19Z</time>
      </trkpt>
      <trkpt lat="44.27802" lon="6.58927">
        <ele>1880.6</ele>
        <time>2021-08-07T10:09:21Z</time>
      </trkpt>
      <trkpt lat="44.27802" lon="6.58927">
        <ele>1880.6</ele>
        <time>2021-08-07T10:09:22Z</time>
      </trkpt>
      <trkpt lat="44.27802" lon="6.58927">
        <ele>1880.6</ele>
        <time>2021-08-07T10:09:23Z</time>
      </trkpt>
      <trkpt lat="44.27798" lon="6.58925">
        <ele>1880.6</ele>
        <time>2021-08-07T10:09:32Z</time>
      </trkpt>
      <trkpt lat="44.27795" lon="6.58922">
        <ele>1880.6</ele>
        <time>2021-08-07T10:09:41Z</time>
      </trkpt>
      <trkpt lat="44.27795" lon="6.58921">
        <ele>1880.6</ele>
        <time>2021-08-07T10:09:42Z</time>
      </trkpt>
      <trkpt lat="44.27796" lon="6.5892">
        <ele>1880.6</ele>
        <time>2021-08-07T10:09:43Z</time>
      </trkpt>
      <trkpt lat="44.27797" lon="6.58918">
        <ele>1880.6</ele>
        <time>2021-08-07T10:09:45Z</time>
      </trkpt>
      <trkpt lat="44.27797" lon="6.58918">
        <ele>1880.6</ele>
        <time>2021-08-07T10:09:48Z</time>
      </trkpt>
      <trkpt lat="44.27798" lon="6.58918">
        <ele>1880.8</ele>
        <time>2021-08-07T10:09:49Z</time>
      </trkpt>
      <trkpt lat="44.27798" lon="6.58917">
        <ele>1880.8</ele>
        <time>2021-08-07T10:09:50Z</time>
      </trkpt>
      <trkpt lat="44.27798" lon="6.58917">
        <ele>1880.8</ele>
        <time>2021-08-07T10:09:51Z</time>
      </trkpt>
      <trkpt lat="44.27797" lon="6.58916">
        <ele>1881</ele>
        <time>2021-08-07T10:09:53Z</time>
      </trkpt>
      <trkpt lat="44.27797" lon="6.58913">
        <ele>1880.8</ele>
        <time>2021-08-07T10:09:55Z</time>
      </trkpt>
      <trkpt lat="44.27786" lon="6.58879">
        <ele>1881</ele>
        <time>2021-08-07T10:10:04Z</time>
      </trkpt>
      <trkpt lat="44.27785" lon="6.58874">
        <ele>1880.8</ele>
        <time>2021-08-07T10:10:05Z</time>
      </trkpt>
      <trkpt lat="44.27782" lon="6.58855">
        <ele>1880.6</ele>
        <time>2021-08-07T10:10:08Z</time>
      </trkpt>
      <trkpt lat="44.2778" lon="6.58847">
        <ele>1880.6</ele>
        <time>2021-08-07T10:10:10Z</time>
      </trkpt>
      <trkpt lat="44.27776" lon="6.58837">
        <ele>1881</ele>
        <time>2021-08-07T10:10:14Z</time>
      </trkpt>
      <trkpt lat="44.2777" lon="6.58823">
        <ele>1881.6</ele>
        <time>2021-08-07T10:10:22Z</time>
      </trkpt>
      <trkpt lat="44.27767" lon="6.58819">
        <ele>1882</ele>
        <time>2021-08-07T10:10:24Z</time>
      </trkpt>
      <trkpt lat="44.27766" lon="6.58818">
        <ele>1882.2</ele>
        <time>2021-08-07T10:10:25Z</time>
      </trkpt>
      <trkpt lat="44.27765" lon="6.58817">
        <ele>1882.4</ele>
        <time>2021-08-07T10:10:26Z</time>
      </trkpt>
      <trkpt lat="44.27763" lon="6.58815">
        <ele>1882.6</ele>
        <time>2021-08-07T10:10:27Z</time>
      </trkpt>
      <trkpt lat="44.27762" lon="6.58814">
        <ele>1882.8</ele>
        <time>2021-08-07T10:10:28Z</time>
      </trkpt>
      <trkpt lat="44.27761" lon="6.58813">
        <ele>1883</ele>
        <time>2021-08-07T10:10:29Z</time>
      </trkpt>
      <trkpt lat="44.27747" lon="6.58797">
        <ele>1883.2</ele>
        <time>2021-08-07T10:10:34Z</time>
      </trkpt>
      <trkpt lat="44.27734" lon="6.58782">
        <ele>1883.4</ele>
        <time>2021-08-07T10:10:41Z</time>
      </trkpt>
      <trkpt lat="44.27731" lon="6.58778">
        <ele>1883.6</ele>
        <time>2021-08-07T10:10:43Z</time>
      </trkpt>
      <trkpt lat="44.2772" lon="6.58758">
        <ele>1884</ele>
        <time>2021-08-07T10:10:52Z</time>
      </trkpt>
      <trkpt lat="44.27719" lon="6.58757">
        <ele>1884.2</ele>
        <time>2021-08-07T10:10:53Z</time>
      </trkpt>
      <trkpt lat="44.27719" lon="6.58753">
        <ele>1884.8</ele>
        <time>2021-08-07T10:10:55Z</time>
      </trkpt>
      <trkpt lat="44.27717" lon="6.58744">
        <ele>1885.4</ele>
        <time>2021-08-07T10:10:59Z</time>
      </trkpt>
      <trkpt lat="44.27699" lon="6.58708">
        <ele>1884</ele>
        <time>2021-08-07T10:11:08Z</time>
      </trkpt>
      <trkpt lat="44.27693" lon="6.587">
        <ele>1882.6</ele>
        <time>2021-08-07T10:11:10Z</time>
      </trkpt>
      <trkpt lat="44.27692" lon="6.58695">
        <ele>1881.8</ele>
        <time>2021-08-07T10:11:11Z</time>
      </trkpt>
      <trkpt lat="44.2769" lon="6.5869">
        <ele>1881.2</ele>
        <time>2021-08-07T10:11:12Z</time>
      </trkpt>
      <trkpt lat="44.27688" lon="6.58678">
        <ele>1880.4</ele>
        <time>2021-08-07T10:11:14Z</time>
      </trkpt>
      <trkpt lat="44.27687" lon="6.58671">
        <ele>1880</ele>
        <time>2021-08-07T10:11:15Z</time>
      </trkpt>
      <trkpt lat="44.27686" lon="6.58654">
        <ele>1879</ele>
        <time>2021-08-07T10:11:18Z</time>
      </trkpt>
      <trkpt lat="44.27688" lon="6.58631">
        <ele>1878</ele>
        <time>2021-08-07T10:11:21Z</time>
      </trkpt>
      <trkpt lat="44.27688" lon="6.58625">
        <ele>1877.4</ele>
        <time>2021-08-07T10:11:22Z</time>
      </trkpt>
      <trkpt lat="44.27688" lon="6.5862">
        <ele>1877</ele>
        <time>2021-08-07T10:11:23Z</time>
      </trkpt>
      <trkpt lat="44.27684" lon="6.58608">
        <ele>1876</ele>
        <time>2021-08-07T10:11:25Z</time>
      </trkpt>
      <trkpt lat="44.27679" lon="6.586">
        <ele>1873.8</ele>
        <time>2021-08-07T10:11:27Z</time>
      </trkpt>
      <trkpt lat="44.27676" lon="6.58599">
        <ele>1872.6</ele>
        <time>2021-08-07T10:11:28Z</time>
      </trkpt>
      <trkpt lat="44.27671" lon="6.58594">
        <ele>1871</ele>
        <time>2021-08-07T10:11:30Z</time>
      </trkpt>
      <trkpt lat="44.2767" lon="6.58583">
        <ele>1870</ele>
        <time>2021-08-07T10:11:32Z</time>
      </trkpt>
      <trkpt lat="44.27667" lon="6.58561">
        <ele>1868.8</ele>
        <time>2021-08-07T10:11:34Z</time>
      </trkpt>
      <trkpt lat="44.27665" lon="6.58541">
        <ele>1867.8</ele>
        <time>2021-08-07T10:11:36Z</time>
      </trkpt>
      <trkpt lat="44.2766" lon="6.58522">
        <ele>1866</ele>
        <time>2021-08-07T10:11:38Z</time>
      </trkpt>
      <trkpt lat="44.27656" lon="6.5851">
        <ele>1864.8</ele>
        <time>2021-08-07T10:11:39Z</time>
      </trkpt>
      <trkpt lat="44.27652" lon="6.58499">
        <ele>1863.6</ele>
        <time>2021-08-07T10:11:40Z</time>
      </trkpt>
      <trkpt lat="44.27648" lon="6.58488">
        <ele>1862.4</ele>
        <time>2021-08-07T10:11:41Z</time>
      </trkpt>
      <trkpt lat="44.27644" lon="6.58479">
        <ele>1861</ele>
        <time>2021-08-07T10:11:42Z</time>
      </trkpt>
      <trkpt lat="44.27641" lon="6.58472">
        <ele>1859.8</ele>
        <time>2021-08-07T10:11:43Z</time>
      </trkpt>
      <trkpt lat="44.27638" lon="6.58466">
        <ele>1858.8</ele>
        <time>2021-08-07T10:11:44Z</time>
      </trkpt>
      <trkpt lat="44.27635" lon="6.58461">
        <ele>1857.6</ele>
        <time>2021-08-07T10:11:45Z</time>
      </trkpt>
      <trkpt lat="44.27633" lon="6.58456">
        <ele>1856.2</ele>
        <time>2021-08-07T10:11:46Z</time>
      </trkpt>
      <trkpt lat="44.27632" lon="6.58453">
        <ele>1854.8</ele>
        <time>2021-08-07T10:11:47Z</time>
      </trkpt>
      <trkpt lat="44.27631" lon="6.58448">
        <ele>1853.8</ele>
        <time>2021-08-07T10:11:48Z</time>
      </trkpt>
      <trkpt lat="44.27632" lon="6.58446">
        <ele>1853</ele>
        <time>2021-08-07T10:11:49Z</time>
      </trkpt>
      <trkpt lat="44.27635" lon="6.58443">
        <ele>1852.6</ele>
        <time>2021-08-07T10:11:50Z</time>
      </trkpt>
      <trkpt lat="44.27642" lon="6.58439">
        <ele>1851.2</ele>
        <time>2021-08-07T10:11:52Z</time>
      </trkpt>
      <trkpt lat="44.27646" lon="6.58435">
        <ele>1850</ele>
        <time>2021-08-07T10:11:53Z</time>
      </trkpt>
      <trkpt lat="44.27649" lon="6.58431">
        <ele>1848.8</ele>
        <time>2021-08-07T10:11:54Z</time>
      </trkpt>
      <trkpt lat="44.27655" lon="6.58426">
        <ele>1847.2</ele>
        <time>2021-08-07T10:11:56Z</time>
      </trkpt>
      <trkpt lat="44.2766" lon="6.5842">
        <ele>1845.4</ele>
        <time>2021-08-07T10:11:58Z</time>
      </trkpt>
      <trkpt lat="44.27664" lon="6.58414">
        <ele>1844.4</ele>
        <time>2021-08-07T10:11:59Z</time>
      </trkpt>
      <trkpt lat="44.27668" lon="6.58404">
        <ele>1842.2</ele>
        <time>2021-08-07T10:12:01Z</time>
      </trkpt>
      <trkpt lat="44.27669" lon="6.58398">
        <ele>1841</ele>
        <time>2021-08-07T10:12:02Z</time>
      </trkpt>
      <trkpt lat="44.2767" lon="6.58395">
        <ele>1840</ele>
        <time>2021-08-07T10:12:03Z</time>
      </trkpt>
      <trkpt lat="44.2767" lon="6.58393">
        <ele>1838</ele>
        <time>2021-08-07T10:12:05Z</time>
      </trkpt>
      <trkpt lat="44.27671" lon="6.58392">
        <ele>1836.4</ele>
        <time>2021-08-07T10:12:07Z</time>
      </trkpt>
      <trkpt lat="44.27667" lon="6.58386">
        <ele>1835</ele>
        <time>2021-08-07T10:12:10Z</time>
      </trkpt>
      <trkpt lat="44.27665" lon="6.58384">
        <ele>1834.6</ele>
        <time>2021-08-07T10:12:11Z</time>
      </trkpt>
      <trkpt lat="44.27661" lon="6.58378">
        <ele>1833.4</ele>
        <time>2021-08-07T10:12:13Z</time>
      </trkpt>
      <trkpt lat="44.27658" lon="6.58373">
        <ele>1831.6</ele>
        <time>2021-08-07T10:12:15Z</time>
      </trkpt>
      <trkpt lat="44.27655" lon="6.58369">
        <ele>1830.6</ele>
        <time>2021-08-07T10:12:17Z</time>
      </trkpt>
      <trkpt lat="44.27653" lon="6.58364">
        <ele>1830</ele>
        <time>2021-08-07T10:12:19Z</time>
      </trkpt>
      <trkpt lat="44.27652" lon="6.58359">
        <ele>1829.6</ele>
        <time>2021-08-07T10:12:21Z</time>
      </trkpt>
      <trkpt lat="44.27651" lon="6.58354">
        <ele>1828.6</ele>
        <time>2021-08-07T10:12:25Z</time>
      </trkpt>
      <trkpt lat="44.2765" lon="6.58342">
        <ele>1827.4</ele>
        <time>2021-08-07T10:12:32Z</time>
      </trkpt>
      <trkpt lat="44.2765" lon="6.58338">
        <ele>1826.2</ele>
        <time>2021-08-07T10:12:36Z</time>
      </trkpt>
      <trkpt lat="44.2765" lon="6.58338">
        <ele>1825.2</ele>
        <time>2021-08-07T10:12:46Z</time>
      </trkpt>
      <trkpt lat="44.27654" lon="6.5834">
        <ele>1825.2</ele>
        <time>2021-08-07T10:12:52Z</time>
      </trkpt>
      <trkpt lat="44.27657" lon="6.58341">
        <ele>1825</ele>
        <time>2021-08-07T10:12:54Z</time>
      </trkpt>
      <trkpt lat="44.27667" lon="6.58338">
        <ele>1823.6</ele>
        <time>2021-08-07T10:12:58Z</time>
      </trkpt>
      <trkpt lat="44.27677" lon="6.58334">
        <ele>1821.6</ele>
        <time>2021-08-07T10:13:00Z</time>
      </trkpt>
      <trkpt lat="44.27683" lon="6.58332">
        <ele>1820</ele>
        <time>2021-08-07T10:13:01Z</time>
      </trkpt>
      <trkpt lat="44.27688" lon="6.58329">
        <ele>1818.4</ele>
        <time>2021-08-07T10:13:02Z</time>
      </trkpt>
      <trkpt lat="44.27693" lon="6.58326">
        <ele>1817</ele>
        <time>2021-08-07T10:13:03Z</time>
      </trkpt>
      <trkpt lat="44.27698" lon="6.58323">
        <ele>1815.6</ele>
        <time>2021-08-07T10:13:04Z</time>
      </trkpt>
      <trkpt lat="44.27701" lon="6.58321">
        <ele>1814.2</ele>
        <time>2021-08-07T10:13:05Z</time>
      </trkpt>
      <trkpt lat="44.27705" lon="6.58318">
        <ele>1812.4</ele>
        <time>2021-08-07T10:13:06Z</time>
      </trkpt>
      <trkpt lat="44.2771" lon="6.58316">
        <ele>1810.4</ele>
        <time>2021-08-07T10:13:07Z</time>
      </trkpt>
      <trkpt lat="44.27715" lon="6.58314">
        <ele>1808.6</ele>
        <time>2021-08-07T10:13:08Z</time>
      </trkpt>
      <trkpt lat="44.27719" lon="6.58312">
        <ele>1807</ele>
        <time>2021-08-07T10:13:09Z</time>
      </trkpt>
      <trkpt lat="44.27725" lon="6.58311">
        <ele>1805.4</ele>
        <time>2021-08-07T10:13:10Z</time>
      </trkpt>
      <trkpt lat="44.27729" lon="6.58312">
        <ele>1803.8</ele>
        <time>2021-08-07T10:13:11Z</time>
      </trkpt>
      <trkpt lat="44.27733" lon="6.58314">
        <ele>1802.2</ele>
        <time>2021-08-07T10:13:12Z</time>
      </trkpt>
      <trkpt lat="44.27738" lon="6.58317">
        <ele>1801</ele>
        <time>2021-08-07T10:13:13Z</time>
      </trkpt>
      <trkpt lat="44.27742" lon="6.58321">
        <ele>1799.6</ele>
        <time>2021-08-07T10:13:14Z</time>
      </trkpt>
      <trkpt lat="44.27745" lon="6.58324">
        <ele>1798</ele>
        <time>2021-08-07T10:13:15Z</time>
      </trkpt>
      <trkpt lat="44.27747" lon="6.58325">
        <ele>1796.4</ele>
        <time>2021-08-07T10:13:16Z</time>
      </trkpt>
      <trkpt lat="44.27749" lon="6.58324">
        <ele>1795.4</ele>
        <time>2021-08-07T10:13:17Z</time>
      </trkpt>
      <trkpt lat="44.27753" lon="6.58317">
        <ele>1793.6</ele>
        <time>2021-08-07T10:13:19Z</time>
      </trkpt>
      <trkpt lat="44.27754" lon="6.58313">
        <ele>1792.8</ele>
        <time>2021-08-07T10:13:20Z</time>
      </trkpt>
      <trkpt lat="44.27756" lon="6.58308">
        <ele>1791.4</ele>
        <time>2021-08-07T10:13:21Z</time>
      </trkpt>
      <trkpt lat="44.27757" lon="6.58303">
        <ele>1790</ele>
        <time>2021-08-07T10:13:22Z</time>
      </trkpt>
      <trkpt lat="44.27757" lon="6.58298">
        <ele>1788.4</ele>
        <time>2021-08-07T10:13:23Z</time>
      </trkpt>
      <trkpt lat="44.27757" lon="6.58294">
        <ele>1787.2</ele>
        <time>2021-08-07T10:13:24Z</time>
      </trkpt>
      <trkpt lat="44.27757" lon="6.58289">
        <ele>1786.2</ele>
        <time>2021-08-07T10:13:25Z</time>
      </trkpt>
      <trkpt lat="44.27755" lon="6.5828">
        <ele>1784.4</ele>
        <time>2021-08-07T10:13:27Z</time>
      </trkpt>
      <trkpt lat="44.27754" lon="6.58273">
        <ele>1782.4</ele>
        <time>2021-08-07T10:13:29Z</time>
      </trkpt>
      <trkpt lat="44.27751" lon="6.58267">
        <ele>1780.4</ele>
        <time>2021-08-07T10:13:31Z</time>
      </trkpt>
      <trkpt lat="44.27749" lon="6.58266">
        <ele>1779.4</ele>
        <time>2021-08-07T10:13:32Z</time>
      </trkpt>
      <trkpt lat="44.27742" lon="6.58261">
        <ele>1777.6</ele>
        <time>2021-08-07T10:13:34Z</time>
      </trkpt>
      <trkpt lat="44.27734" lon="6.58257">
        <ele>1776</ele>
        <time>2021-08-07T10:13:36Z</time>
      </trkpt>
      <trkpt lat="44.2773" lon="6.58256">
        <ele>1774.8</ele>
        <time>2021-08-07T10:13:37Z</time>
      </trkpt>
      <trkpt lat="44.27727" lon="6.58254">
        <ele>1773.4</ele>
        <time>2021-08-07T10:13:38Z</time>
      </trkpt>
      <trkpt lat="44.27726" lon="6.5825">
        <ele>1772.2</ele>
        <time>2021-08-07T10:13:39Z</time>
      </trkpt>
      <trkpt lat="44.27726" lon="6.58248">
        <ele>1771</ele>
        <time>2021-08-07T10:13:40Z</time>
      </trkpt>
      <trkpt lat="44.27729" lon="6.58244">
        <ele>1769.4</ele>
        <time>2021-08-07T10:13:42Z</time>
      </trkpt>
      <trkpt lat="44.27734" lon="6.58238">
        <ele>1767.6</ele>
        <time>2021-08-07T10:13:44Z</time>
      </trkpt>
      <trkpt lat="44.27735" lon="6.58234">
        <ele>1766.2</ele>
        <time>2021-08-07T10:13:45Z</time>
      </trkpt>
      <trkpt lat="44.27736" lon="6.5823">
        <ele>1765.2</ele>
        <time>2021-08-07T10:13:46Z</time>
      </trkpt>
      <trkpt lat="44.27738" lon="6.58227">
        <ele>1764.2</ele>
        <time>2021-08-07T10:13:47Z</time>
      </trkpt>
      <trkpt lat="44.27741" lon="6.58226">
        <ele>1763.6</ele>
        <time>2021-08-07T10:13:48Z</time>
      </trkpt>
      <trkpt lat="44.27746" lon="6.58223">
        <ele>1762.2</ele>
        <time>2021-08-07T10:13:50Z</time>
      </trkpt>
      <trkpt lat="44.27744" lon="6.58219">
        <ele>1760.6</ele>
        <time>2021-08-07T10:13:52Z</time>
      </trkpt>
      <trkpt lat="44.27737" lon="6.58208">
        <ele>1759.2</ele>
        <time>2021-08-07T10:13:55Z</time>
      </trkpt>
      <trkpt lat="44.27735" lon="6.58203">
        <ele>1758.2</ele>
        <time>2021-08-07T10:13:56Z</time>
      </trkpt>
      <trkpt lat="44.27734" lon="6.58199">
        <ele>1756.6</ele>
        <time>2021-08-07T10:13:57Z</time>
      </trkpt>
      <trkpt lat="44.27732" lon="6.58196">
        <ele>1755.2</ele>
        <time>2021-08-07T10:13:58Z</time>
      </trkpt>
      <trkpt lat="44.27731" lon="6.58194">
        <ele>1754.2</ele>
        <time>2021-08-07T10:13:59Z</time>
      </trkpt>
      <trkpt lat="44.2773" lon="6.58191">
        <ele>1753.2</ele>
        <time>2021-08-07T10:14:00Z</time>
      </trkpt>
      <trkpt lat="44.2773" lon="6.5819">
        <ele>1752.6</ele>
        <time>2021-08-07T10:14:01Z</time>
      </trkpt>
      <trkpt lat="44.27737" lon="6.58185">
        <ele>1751.4</ele>
        <time>2021-08-07T10:14:05Z</time>
      </trkpt>
      <trkpt lat="44.27741" lon="6.58178">
        <ele>1750.4</ele>
        <time>2021-08-07T10:14:12Z</time>
      </trkpt>
      <trkpt lat="44.27742" lon="6.58177">
        <ele>1750.4</ele>
        <time>2021-08-07T10:14:13Z</time>
      </trkpt>
      <trkpt lat="44.2774" lon="6.58171">
        <ele>1749.2</ele>
        <time>2021-08-07T10:14:27Z</time>
      </trkpt>
      <trkpt lat="44.27725" lon="6.58166">
        <ele>1748</ele>
        <time>2021-08-07T10:14:41Z</time>
      </trkpt>
      <trkpt lat="44.27707" lon="6.58157">
        <ele>1747</ele>
        <time>2021-08-07T10:14:47Z</time>
      </trkpt>
      <trkpt lat="44.27703" lon="6.58153">
        <ele>1746.6</ele>
        <time>2021-08-07T10:14:48Z</time>
      </trkpt>
      <trkpt lat="44.27694" lon="6.58147">
        <ele>1745</ele>
        <time>2021-08-07T10:14:50Z</time>
      </trkpt>
      <trkpt lat="44.27686" lon="6.58141">
        <ele>1743.6</ele>
        <time>2021-08-07T10:14:52Z</time>
      </trkpt>
      <trkpt lat="44.27683" lon="6.58137">
        <ele>1743</ele>
        <time>2021-08-07T10:14:53Z</time>
      </trkpt>
      <trkpt lat="44.2768" lon="6.58133">
        <ele>1742.2</ele>
        <time>2021-08-07T10:14:54Z</time>
      </trkpt>
      <trkpt lat="44.27679" lon="6.58128">
        <ele>1741.4</ele>
        <time>2021-08-07T10:14:55Z</time>
      </trkpt>
      <trkpt lat="44.2768" lon="6.58122">
        <ele>1740.6</ele>
        <time>2021-08-07T10:14:56Z</time>
      </trkpt>
      <trkpt lat="44.27684" lon="6.58112">
        <ele>1739.2</ele>
        <time>2021-08-07T10:14:58Z</time>
      </trkpt>
      <trkpt lat="44.27691" lon="6.58102">
        <ele>1737.8</ele>
        <time>2021-08-07T10:15:00Z</time>
      </trkpt>
      <trkpt lat="44.27694" lon="6.58098">
        <ele>1736.8</ele>
        <time>2021-08-07T10:15:01Z</time>
      </trkpt>
      <trkpt lat="44.27697" lon="6.58095">
        <ele>1735.6</ele>
        <time>2021-08-07T10:15:02Z</time>
      </trkpt>
      <trkpt lat="44.277" lon="6.58092">
        <ele>1734.6</ele>
        <time>2021-08-07T10:15:03Z</time>
      </trkpt>
      <trkpt lat="44.27705" lon="6.58086">
        <ele>1733.4</ele>
        <time>2021-08-07T10:15:05Z</time>
      </trkpt>
      <trkpt lat="44.27712" lon="6.5808">
        <ele>1732.8</ele>
        <time>2021-08-07T10:15:08Z</time>
      </trkpt>
      <trkpt lat="44.27712" lon="6.58075">
        <ele>1732.8</ele>
        <time>2021-08-07T10:15:10Z</time>
      </trkpt>
      <trkpt lat="44.27709" lon="6.58072">
        <ele>1732.6</ele>
        <time>2021-08-07T10:15:12Z</time>
      </trkpt>
      <trkpt lat="44.27706" lon="6.58069">
        <ele>1732.4</ele>
        <time>2021-08-07T10:15:14Z</time>
      </trkpt>
      <trkpt lat="44.27705" lon="6.58065">
        <ele>1732</ele>
        <time>2021-08-07T10:15:16Z</time>
      </trkpt>
      <trkpt lat="44.27705" lon="6.58058">
        <ele>1732</ele>
        <time>2021-08-07T10:15:19Z</time>
      </trkpt>
      <trkpt lat="44.27707" lon="6.58056">
        <ele>1732</ele>
        <time>2021-08-07T10:15:23Z</time>
      </trkpt>
      <trkpt lat="44.2771" lon="6.5805">
        <ele>1731.8</ele>
        <time>2021-08-07T10:15:27Z</time>
      </trkpt>
      <trkpt lat="44.27702" lon="6.58022">
        <ele>1731</ele>
        <time>2021-08-07T10:15:39Z</time>
      </trkpt>
      <trkpt lat="44.27697" lon="6.58011">
        <ele>1729.4</ele>
        <time>2021-08-07T10:15:41Z</time>
      </trkpt>
      <trkpt lat="44.27695" lon="6.58005">
        <ele>1728.2</ele>
        <time>2021-08-07T10:15:42Z</time>
      </trkpt>
      <trkpt lat="44.27694" lon="6.58">
        <ele>1727.2</ele>
        <time>2021-08-07T10:15:43Z</time>
      </trkpt>
      <trkpt lat="44.27697" lon="6.57993">
        <ele>1725.8</ele>
        <time>2021-08-07T10:15:45Z</time>
      </trkpt>
      <trkpt lat="44.27686" lon="6.57946">
        <ele>1727</ele>
        <time>2021-08-07T10:15:59Z</time>
      </trkpt>
      <trkpt lat="44.27675" lon="6.57921">
        <ele>1727.8</ele>
        <time>2021-08-07T10:16:06Z</time>
      </trkpt>
      <trkpt lat="44.27672" lon="6.57915">
        <ele>1728</ele>
        <time>2021-08-07T10:16:08Z</time>
      </trkpt>
      <trkpt lat="44.27652" lon="6.57876">
        <ele>1728.8</ele>
        <time>2021-08-07T10:16:24Z</time>
      </trkpt>
    </trkseg>
  </trk>
</gpx>